Observation data for Menard on 07/03/2020      Previous  Date  Next       Current Mesonet Observations  Soil Data  Daily Summary Page  Observations in Plain Language
KMD1 030500Z 03002KT 26/18 A3002 RMK A01 T02570176  RH  061%=      5-min Rain = 0
KMD1 030501Z 03002KT 26/17 A3002 RMK A01 T02580174  RH  060%=      5-min Rain = 0
KMD1 030502Z 02002KT 26/17 A3002 RMK A01 T02580174  RH  060%=      5-min Rain = 0
KMD1 030503Z 03002KT 26/18 A3002 RMK A01 T02580177  RH  061%=      5-min Rain = 0
KMD1 030504Z 03001KT 26/18 A3002 RMK A01 T02580176  RH  061%=      5-min Rain = 0
KMD1 030505Z 03002KT 26/18 A3002 RMK A01 T02570176  RH  061%=      5-min Rain = 0
KMD1 030506Z 03003KT 26/17 A3002 RMK A01 T02570174  RH  060%=      5-min Rain = 0
KMD1 030507Z 02002KT 26/18 A3002 RMK A01 T02590175  RH  060%=      5-min Rain = 0
KMD1 030508Z 04002KT 26/18 A3002 RMK A01 T02600177  RH  060%=      5-min Rain = 0
KMD1 030509Z 03002KT 26/18 A3002 RMK A01 T02590177  RH  060%=      5-min Rain = 0
KMD1 030510Z 03001KT 26/18 A3002 RMK A01 T02590177  RH  060%=      5-min Rain = 0
KMD1 030511Z 04002KT 26/18 A3002 RMK A01 T02590178  RH  061%=      5-min Rain = 0
KMD1 030512Z 04002KT 26/18 A3002 RMK A01 T02580177  RH  061%=      5-min Rain = 0
KMD1 030513Z 06002KT 26/18 A3002 RMK A01 T02580176  RH  061%=      5-min Rain = 0
KMD1 030514Z 06001KT 26/17 A3002 RMK A01 T02580174  RH  060%=      5-min Rain = 0
KMD1 030515Z 09001KT 26/18 A3002 RMK A01 T02590175  RH  060%=      5-min Rain = 0
KMD1 030516Z 05002KT 26/18 A3002 RMK A01 T02610176  RH  059%=      5-min Rain = 0
KMD1 030517Z 06002KT 26/18 A3002 RMK A01 T02610179  RH  060%=      5-min Rain = 0
KMD1 030518Z 05002KT 26/18 A3002 RMK A01 T02600177  RH  060%=      5-min Rain = 0
KMD1 030519Z 03002KT 26/18 A3003 RMK A01 T02600178  RH  061%=      5-min Rain = 0
KMD1 030520Z 05002KT 26/18 A3003 RMK A01 T02580180  RH  062%=      5-min Rain = 0
KMD1 030521Z 06001KT 26/18 A3003 RMK A01 T02560179  RH  062%=      5-min Rain = 0
KMD1 030522Z 06002KT 26/18 A3003 RMK A01 T02560178  RH  062%=      5-min Rain = 0
KMD1 030523Z 05001KT 26/18 A3003 RMK A01 T02560178  RH  062%=      5-min Rain = 0
KMD1 030524Z 08001KT 26/18 A3003 RMK A01 T02560179  RH  062%=      5-min Rain = 0
KMD1 030525Z 04001KT 26/18 A3003 RMK A01 T02560178  RH  062%=      5-min Rain = 0
KMD1 030526Z 06002KT 26/18 A3003 RMK A01 T02550182  RH  064%=      5-min Rain = 0
KMD1 030527Z 06002KT 25/18 A3003 RMK A01 T02540181  RH  064%=      5-min Rain = 0
KMD1 030528Z 06002KT 25/18 A3003 RMK A01 T02530183  RH  065%=      5-min Rain = 0
KMD1 030529Z 06002KT 25/18 A3003 RMK A01 T02510182  RH  066%=      5-min Rain = 0
KMD1 030530Z 09002KT 25/18 A3003 RMK A01 T02500180  RH  065%=      5-min Rain = 0
KMD1 030531Z 07002KT 25/18 A3003 RMK A01 T02500178  RH  064%=      5-min Rain = 0
KMD1 030532Z 09002KT 25/18 A3003 RMK A01 T02500179  RH  065%=      5-min Rain = 0
KMD1 030533Z 08001KT 25/18 A3002 RMK A01 T02500179  RH  065%=      5-min Rain = 0
KMD1 030534Z 10001KT 25/18 A3002 RMK A01 T02500180  RH  065%=      5-min Rain = 0
KMD1 030535Z 09002KT 25/18 A3002 RMK A01 T02500182  RH  066%=      5-min Rain = 0
KMD1 030536Z 10001KT 25/18 A3002 RMK A01 T02500180  RH  065%=      5-min Rain = 0
KMD1 030537Z 06001KT 25/18 A3002 RMK A01 T02500179  RH  065%=      5-min Rain = 0
KMD1 030538Z 08001KT 25/18 A3002 RMK A01 T02490180  RH  066%=      5-min Rain = 0
KMD1 030539Z 08002KT 25/18 A3002 RMK A01 T02490180  RH  065%=      5-min Rain = 0
KMD1 030540Z 08001KT 25/18 A3002 RMK A01 T02500177  RH  064%=      5-min Rain = 0
KMD1 030541Z 07002KT 25/18 A3002 RMK A01 T02510179  RH  064%=      5-min Rain = 0
KMD1 030542Z 07002KT 25/18 A3002 RMK A01 T02510179  RH  064%=      5-min Rain = 0
KMD1 030543Z 08002KT 25/18 A3002 RMK A01 T02510180  RH  065%=      5-min Rain = 0
KMD1 030544Z 07002KT 25/18 A3002 RMK A01 T02510182  RH  066%=      5-min Rain = 0
KMD1 030545Z 06002KT 25/18 A3002 RMK A01 T02490182  RH  066%=      5-min Rain = 0
KMD1 030546Z 07002KT 25/18 A3002 RMK A01 T02490182  RH  066%=      5-min Rain = 0
KMD1 030547Z 07003KT 25/18 A3002 RMK A01 T02480183  RH  067%=      5-min Rain = 0
KMD1 030548Z 08002KT 25/18 A3002 RMK A01 T02470184  RH  068%=      5-min Rain = 0
KMD1 030549Z 07002KT 25/18 A3002 RMK A01 T02470181  RH  067%=      5-min Rain = 0
KMD1 030550Z 08003KT 25/18 A3002 RMK A01 T02470183  RH  068%=      5-min Rain = 0
KMD1 030551Z 08002KT 25/18 A3002 RMK A01 T02470182  RH  067%=      5-min Rain = 0
KMD1 030552Z 08002KT 25/18 A3002 RMK A01 T02470179  RH  066%=      5-min Rain = 0
KMD1 030553Z 08002KT 25/18 A3002 RMK A01 T02480179  RH  066%=      5-min Rain = 0
KMD1 030554Z 09001KT 25/18 A3002 RMK A01 T02480179  RH  065%=      5-min Rain = 0
KMD1 030555Z 10002KT 25/18 A3002 RMK A01 T02480180  RH  066%=      5-min Rain = 0
KMD1 030556Z 10001KT 25/18 A3002 RMK A01 T02480180  RH  066%=      5-min Rain = 0
KMD1 030557Z 10001KT 25/18 A3002 RMK A01 T02480179  RH  066%=      5-min Rain = 0
KMD1 030558Z 09001KT 25/18 A3002 RMK A01 T02470179  RH  066%=      5-min Rain = 0
KMD1 030559Z 09002KT 25/18 A3002 RMK A01 T02480179  RH  065%=      5-min Rain = 0
KMD1 030600Z 09002KT 25/18 A3002 RMK A01 T02480178  RH  065%=      5-min Rain = 0
KMD1 030601Z 09002KT 25/18 A3002 RMK A01 T02480178  RH  065%=      5-min Rain = 0
KMD1 030602Z 09002KT 25/18 A3002 RMK A01 T02480178  RH  065%=      5-min Rain = 0
KMD1 030603Z 09002KT 25/18 A3002 RMK A01 T02480177  RH  065%=      5-min Rain = 0
KMD1 030604Z 09002KT 25/18 A3002 RMK A01 T02490178  RH  065%=      5-min Rain = 0
KMD1 030605Z 08001KT 25/18 A3002 RMK A01 T02490178  RH  065%=      5-min Rain = 0
KMD1 030606Z 09001KT 25/18 A3002 RMK A01 T02490179  RH  065%=      5-min Rain = 0
KMD1 030607Z 09001KT 25/18 A3002 RMK A01 T02480178  RH  065%=      5-min Rain = 0
KMD1 030608Z 10001KT 25/18 A3002 RMK A01 T02480178  RH  065%=      5-min Rain = 0
KMD1 030609Z 10000KT 25/18 A3002 RMK A01 T02470178  RH  065%=      5-min Rain = 0
KMD1 030610Z 12001KT 25/18 A3002 RMK A01 T02470179  RH  066%=      5-min Rain = 0
KMD1 030611Z 12001KT 25/18 A3002 RMK A01 T02460180  RH  066%=      5-min Rain = 0
KMD1 030612Z 12001KT 25/18 A3002 RMK A01 T02460179  RH  066%=      5-min Rain = 0
KMD1 030613Z 13001KT 25/18 A3002 RMK A01 T02450179  RH  066%=      5-min Rain = 0
KMD1 030614Z 14001KT 25/18 A3002 RMK A01 T02450178  RH  066%=      5-min Rain = 0
KMD1 030615Z 13001KT 25/18 A3002 RMK A01 T02450177  RH  066%=      5-min Rain = 0
KMD1 030616Z 15001KT 25/18 A3002 RMK A01 T02450179  RH  067%=      5-min Rain = 0
KMD1 030617Z 14001KT 24/18 A3002 RMK A01 T02440178  RH  066%=      5-min Rain = 0
KMD1 030618Z 19001KT 24/18 A3002 RMK A01 T02440179  RH  067%=      5-min Rain = 0
KMD1 030619Z 16001KT 24/18 A3002 RMK A01 T02420181  RH  068%=      5-min Rain = 0
KMD1 030620Z 16000KT 24/18 A3002 RMK A01 T02410180  RH  068%=      5-min Rain = 0
KMD1 030621Z 18001KT 24/18 A3002 RMK A01 T02410179  RH  069%=      5-min Rain = 0
KMD1 030622Z 17001KT 24/18 A3002 RMK A01 T02400181  RH  069%=      5-min Rain = 0
KMD1 030623Z 13000KT 24/18 A3002 RMK A01 T02390181  RH  070%=      5-min Rain = 0
KMD1 030624Z 00000KT 24/18 A3002 RMK A01 T02390182  RH  070%=      5-min Rain = 0
KMD1 030625Z 17000KT 24/18 A3002 RMK A01 T02380180  RH  070%=      5-min Rain = 0
KMD1 030626Z 16000KT 24/18 A3002 RMK A01 T02370181  RH  071%=      5-min Rain = 0
KMD1 030627Z 18001KT 24/18 A3002 RMK A01 T02370182  RH  071%=      5-min Rain = 0
KMD1 030628Z 17001KT 24/18 A3002 RMK A01 T02360181  RH  071%=      5-min Rain = 0
KMD1 030629Z 17001KT 24/18 A3002 RMK A01 T02360182  RH  072%=      5-min Rain = 0
KMD1 030630Z 17001KT 24/19 A3002 RMK A01 T02350185  RH  073%=      5-min Rain = 0
KMD1 030631Z 18001KT 24/19 A3002 RMK A01 T02350187  RH  075%=      5-min Rain = 0
KMD1 030632Z 19001KT 23/19 A3002 RMK A01 T02340188  RH  076%=      5-min Rain = 0
KMD1 030633Z 20001KT 23/19 A3002 RMK A01 T02330187  RH  076%=      5-min Rain = 0
KMD1 030634Z 20001KT 23/19 A3002 RMK A01 T02320187  RH  076%=      5-min Rain = 0
KMD1 030635Z 20001KT 23/19 A3001 RMK A01 T02310185  RH  075%=      5-min Rain = 0
KMD1 030636Z 19001KT 23/19 A3001 RMK A01 T02310185  RH  075%=      5-min Rain = 0
KMD1 030637Z 19001KT 23/19 A3001 RMK A01 T02310186  RH  076%=      5-min Rain = 0
KMD1 030638Z 17000KT 23/19 A3001 RMK A01 T02310188  RH  077%=      5-min Rain = 0
KMD1 030639Z 00000KT 23/19 A3001 RMK A01 T02300188  RH  077%=      5-min Rain = 0
KMD1 030640Z 00000KT 23/19 A3001 RMK A01 T02300189  RH  078%=      5-min Rain = 0
KMD1 030641Z 17000KT 23/19 A3001 RMK A01 T02290190  RH  079%=      5-min Rain = 0
KMD1 030642Z 16000KT 23/19 A3001 RMK A01 T02270190  RH  079%=      5-min Rain = 0
KMD1 030643Z 00000KT 23/19 A3001 RMK A01 T02260188  RH  079%=      5-min Rain = 0
KMD1 030644Z 00000KT 23/19 A3001 RMK A01 T02260188  RH  079%=      5-min Rain = 0
KMD1 030645Z 09000KT 23/19 A3001 RMK A01 T02270193  RH  081%=      5-min Rain = 0
KMD1 030646Z 06000KT 23/20 A3001 RMK A01 T02270197  RH  083%=      5-min Rain = 0
KMD1 030647Z 06001KT 23/20 A3001 RMK A01 T02260197  RH  083%=      5-min Rain = 0
KMD1 030648Z 06000KT 23/20 A3001 RMK A01 T02250197  RH  084%=      5-min Rain = 0
KMD1 030649Z 05001KT 22/20 A3001 RMK A01 T02230197  RH  085%=      5-min Rain = 0
KMD1 030650Z 03001KT 22/20 A3001 RMK A01 T02220197  RH  086%=      5-min Rain = 0
KMD1 030651Z 01001KT 22/20 A3001 RMK A01 T02220197  RH  086%=      5-min Rain = 0
KMD1 030652Z 01001KT 22/19 A3001 RMK A01 T02210194  RH  084%=      5-min Rain = 0
KMD1 030653Z 02001KT 22/19 A3001 RMK A01 T02210191  RH  083%=      5-min Rain = 0
KMD1 030654Z 02001KT 22/19 A3001 RMK A01 T02210190  RH  083%=      5-min Rain = 0
KMD1 030655Z 01002KT 22/19 A3001 RMK A01 T02220190  RH  082%=      5-min Rain = 0
KMD1 030656Z 01002KT 22/19 A3001 RMK A01 T02220189  RH  081%=      5-min Rain = 0
KMD1 030657Z 01002KT 22/19 A3001 RMK A01 T02230188  RH  080%=      5-min Rain = 0
KMD1 030658Z 01002KT 22/19 A3001 RMK A01 T02240187  RH  080%=      5-min Rain = 0
KMD1 030659Z 02002KT 22/19 A3002 RMK A01 T02240186  RH  079%=      5-min Rain = 0
KMD1 030700Z 01002KT 23/18 A3002 RMK A01 T02250184  RH  078%=      5-min Rain = 0
KMD1 030701Z 02002KT 23/18 A3002 RMK A01 T02260184  RH  077%=      5-min Rain = 0
KMD1 030702Z 01002KT 23/18 A3002 RMK A01 T02280184  RH  076%=      5-min Rain = 0
KMD1 030703Z 01002KT 23/18 A3002 RMK A01 T02290183  RH  076%=      5-min Rain = 0
KMD1 030704Z 01003KT 23/18 A3002 RMK A01 T02290183  RH  075%=      5-min Rain = 0
KMD1 030705Z 02003KT 23/18 A3001 RMK A01 T02300183  RH  075%=      5-min Rain = 0
KMD1 030706Z 02002KT 23/18 A3001 RMK A01 T02300183  RH  075%=      5-min Rain = 0
KMD1 030707Z 02002KT 23/18 A3001 RMK A01 T02310183  RH  074%=      5-min Rain = 0
KMD1 030708Z 02002KT 23/18 A3001 RMK A01 T02310182  RH  074%=      5-min Rain = 0
KMD1 030709Z 02002KT 23/18 A3001 RMK A01 T02320182  RH  073%=      5-min Rain = 0
KMD1 030710Z 02003KT 23/18 A3001 RMK A01 T02330184  RH  074%=      5-min Rain = 0
KMD1 030711Z 02003KT 23/18 A3001 RMK A01 T02330184  RH  074%=      5-min Rain = 0
KMD1 030712Z 02002KT 23/18 A3001 RMK A01 T02320183  RH  074%=      5-min Rain = 0
KMD1 030713Z 03002KT 23/18 A3001 RMK A01 T02320182  RH  074%=      5-min Rain = 0
KMD1 030714Z 03003KT 23/18 A3001 RMK A01 T02330184  RH  074%=      5-min Rain = 0
KMD1 030715Z 02003KT 23/19 A3001 RMK A01 T02320185  RH  075%=      5-min Rain = 0
KMD1 030716Z 03003KT 23/18 A3001 RMK A01 T02320183  RH  074%=      5-min Rain = 0
KMD1 030717Z 04003KT 23/18 A3001 RMK A01 T02320182  RH  074%=      5-min Rain = 0
KMD1 030718Z 05002KT 23/18 A3001 RMK A01 T02330182  RH  073%=      5-min Rain = 0
KMD1 030719Z 03002KT 23/18 A3001 RMK A01 T02340182  RH  073%=      5-min Rain = 0
KMD1 030720Z 02002KT 24/19 A3001 RMK A01 T02350185  RH  073%=      5-min Rain = 0
KMD1 030721Z 02002KT 23/19 A3001 RMK A01 T02340185  RH  074%=      5-min Rain = 0
KMD1 030722Z 03002KT 23/19 A3001 RMK A01 T02330186  RH  075%=      5-min Rain = 0
KMD1 030723Z 03003KT 23/19 A3001 RMK A01 T02310186  RH  076%=      5-min Rain = 0
KMD1 030724Z 03003KT 23/19 A3001 RMK A01 T02290186  RH  077%=      5-min Rain = 0
KMD1 030725Z 02003KT 23/19 A3001 RMK A01 T02280187  RH  077%=      5-min Rain = 0
KMD1 030726Z 03003KT 23/19 A3001 RMK A01 T02270187  RH  078%=      5-min Rain = 0
KMD1 030727Z 04002KT 23/19 A3001 RMK A01 T02260188  RH  079%=      5-min Rain = 0
KMD1 030728Z 05002KT 23/19 A3001 RMK A01 T02250186  RH  079%=      5-min Rain = 0
KMD1 030729Z 05002KT 23/19 A3001 RMK A01 T02260187  RH  079%=      5-min Rain = 0
KMD1 030730Z 05002KT 23/19 A3001 RMK A01 T02250187  RH  079%=      5-min Rain = 0
KMD1 030731Z 04002KT 23/19 A3001 RMK A01 T02250187  RH  079%=      5-min Rain = 0
KMD1 030732Z 02002KT 22/19 A3001 RMK A01 T02240187  RH  079%=      5-min Rain = 0
KMD1 030733Z 03002KT 23/19 A3001 RMK A01 T02250186  RH  079%=      5-min Rain = 0
KMD1 030734Z 05001KT 23/19 A3001 RMK A01 T02250186  RH  079%=      5-min Rain = 0
KMD1 030735Z 04001KT 23/19 A3001 RMK A01 T02250186  RH  079%=      5-min Rain = 0
KMD1 030736Z 22001KT 23/19 A3001 RMK A01 T02250186  RH  079%=      5-min Rain = 0
KMD1 030737Z 27000KT 23/19 A3001 RMK A01 T02250185  RH  078%=      5-min Rain = 0
KMD1 030738Z 10000KT 23/19 A3001 RMK A01 T02250185  RH  078%=      5-min Rain = 0
KMD1 030739Z 05000KT 23/19 A3001 RMK A01 T02260185  RH  078%=      5-min Rain = 0
KMD1 030740Z 06001KT 23/19 A3001 RMK A01 T02260185  RH  078%=      5-min Rain = 0
KMD1 030741Z 08001KT 23/19 A3001 RMK A01 T02260185  RH  077%=      5-min Rain = 0
KMD1 030742Z 08002KT 23/19 A3001 RMK A01 T02270185  RH  077%=      5-min Rain = 0
KMD1 030743Z 08002KT 23/19 A3001 RMK A01 T02280186  RH  077%=      5-min Rain = 0
KMD1 030744Z 09002KT 23/19 A3001 RMK A01 T02280185  RH  077%=      5-min Rain = 0
KMD1 030745Z 08002KT 23/19 A3001 RMK A01 T02280186  RH  077%=      5-min Rain = 0
KMD1 030746Z 10002KT 23/19 A3001 RMK A01 T02290187  RH  077%=      5-min Rain = 0
KMD1 030747Z 10002KT 23/19 A3001 RMK A01 T02270186  RH  078%=      5-min Rain = 0
KMD1 030748Z 10002KT 23/19 A3001 RMK A01 T02270187  RH  078%=      5-min Rain = 0
KMD1 030749Z 11002KT 23/19 A3001 RMK A01 T02260187  RH  079%=      5-min Rain = 0
KMD1 030750Z 12001KT 23/19 A3001 RMK A01 T02250188  RH  079%=      5-min Rain = 0
KMD1 030751Z 12001KT 23/19 A3001 RMK A01 T02250188  RH  080%=      5-min Rain = 0
KMD1 030752Z 13002KT 22/19 A3001 RMK A01 T02240187  RH  080%=      5-min Rain = 0
KMD1 030753Z 13002KT 22/19 A3001 RMK A01 T02220189  RH  081%=      5-min Rain = 0
KMD1 030754Z 13002KT 22/19 A3001 RMK A01 T02210189  RH  082%=      5-min Rain = 0
KMD1 030755Z 11002KT 22/19 A3001 RMK A01 T02210189  RH  082%=      5-min Rain = 0
KMD1 030756Z 10001KT 22/19 A3001 RMK A01 T02200189  RH  082%=      5-min Rain = 0
KMD1 030757Z 09001KT 22/19 A3001 RMK A01 T02200189  RH  082%=      5-min Rain = 0
KMD1 030758Z 08001KT 22/19 A3001 RMK A01 T02190188  RH  083%=      5-min Rain = 0
KMD1 030759Z 08001KT 22/19 A3001 RMK A01 T02190189  RH  083%=      5-min Rain = 0
KMD1 030800Z 08002KT 22/19 A3001 RMK A01 T02190190  RH  083%=      5-min Rain = 0
KMD1 030801Z 08002KT 22/19 A3001 RMK A01 T02190189  RH  083%=      5-min Rain = 0
KMD1 030802Z 08002KT 22/19 A3001 RMK A01 T02200190  RH  083%=      5-min Rain = 0
KMD1 030803Z 08002KT 22/19 A3001 RMK A01 T02190191  RH  084%=      5-min Rain = 0
KMD1 030804Z 08002KT 22/19 A3001 RMK A01 T02190191  RH  084%=      5-min Rain = 0
KMD1 030805Z 08002KT 22/19 A3001 RMK A01 T02190191  RH  084%=      5-min Rain = 0
KMD1 030806Z 08002KT 22/19 A3001 RMK A01 T02190192  RH  084%=      5-min Rain = 0
KMD1 030807Z 08002KT 22/19 A3001 RMK A01 T02190191  RH  084%=      5-min Rain = 0
KMD1 030808Z 08002KT 22/19 A3001 RMK A01 T02190191  RH  084%=      5-min Rain = 0
KMD1 030809Z 08002KT 22/19 A3001 RMK A01 T02190191  RH  084%=      5-min Rain = 0
KMD1 030810Z 07002KT 22/19 A3001 RMK A01 T02190191  RH  084%=      5-min Rain = 0
KMD1 030811Z 07002KT 22/19 A3001 RMK A01 T02190191  RH  084%=      5-min Rain = 0
KMD1 030812Z 07001KT 22/19 A3001 RMK A01 T02190189  RH  083%=      5-min Rain = 0
KMD1 030813Z 06001KT 22/19 A3001 RMK A01 T02210188  RH  081%=      5-min Rain = 0
KMD1 030814Z 07001KT 22/19 A3001 RMK A01 T02230188  RH  081%=      5-min Rain = 0
KMD1 030815Z 06001KT 23/19 A3001 RMK A01 T02250188  RH  080%=      5-min Rain = 0
KMD1 030816Z 05002KT 23/19 A3001 RMK A01 T02250188  RH  079%=      5-min Rain = 0
KMD1 030817Z 05002KT 23/19 A3001 RMK A01 T02260188  RH  079%=      5-min Rain = 0
KMD1 030818Z 07002KT 23/19 A3001 RMK A01 T02270188  RH  079%=      5-min Rain = 0
KMD1 030819Z 06002KT 23/19 A3001 RMK A01 T02270188  RH  078%=      5-min Rain = 0
KMD1 030820Z 06002KT 23/19 A3001 RMK A01 T02280188  RH  078%=      5-min Rain = 0
KMD1 030821Z 05003KT 23/19 A3001 RMK A01 T02270189  RH  079%=      5-min Rain = 0
KMD1 030822Z 05003KT 23/19 A3001 RMK A01 T02250188  RH  080%=      5-min Rain = 0
KMD1 030823Z 04003KT 22/19 A3001 RMK A01 T02220189  RH  081%=      5-min Rain = 0
KMD1 030824Z 03004KT 22/19 A3001 RMK A01 T02190189  RH  083%=      5-min Rain = 0
KMD1 030825Z 02004KT 22/19 A3001 RMK A01 T02170189  RH  084%=      5-min Rain = 0
KMD1 030826Z 03004KT 22/19 A3001 RMK A01 T02150189  RH  085%=      5-min Rain = 0
KMD1 030827Z 03004KT 21/19 A3001 RMK A01 T02140190  RH  086%=      5-min Rain = 0
KMD1 030828Z 03004KT 21/19 A3001 RMK A01 T02140189  RH  086%=      5-min Rain = 0
KMD1 030829Z 03004KT 21/19 A3001 RMK A01 T02140188  RH  085%=      5-min Rain = 0
KMD1 030830Z 03004KT 22/19 A3001 RMK A01 T02150189  RH  085%=      5-min Rain = 0
KMD1 030831Z 03004KT 22/19 A3001 RMK A01 T02160188  RH  084%=      5-min Rain = 0
KMD1 030832Z 02004KT 22/19 A3001 RMK A01 T02180189  RH  083%=      5-min Rain = 0
KMD1 030833Z 03004KT 22/19 A3001 RMK A01 T02180188  RH  083%=      5-min Rain = 0
KMD1 030834Z 04003KT 22/19 A3001 RMK A01 T02200188  RH  082%=      5-min Rain = 0
KMD1 030835Z 03004KT 22/19 A3001 RMK A01 T02210187  RH  081%=      5-min Rain = 0
KMD1 030836Z 02003KT 22/19 A3001 RMK A01 T02220187  RH  081%=      5-min Rain = 0
KMD1 030837Z 04004KT 22/19 A3001 RMK A01 T02230188  RH  081%=      5-min Rain = 0
KMD1 030838Z 04003KT 22/19 A3001 RMK A01 T02230188  RH  081%=      5-min Rain = 0
KMD1 030839Z 04003KT 22/19 A3001 RMK A01 T02240188  RH  080%=      5-min Rain = 0
KMD1 030840Z 04003KT 23/19 A3001 RMK A01 T02250188  RH  080%=      5-min Rain = 0
KMD1 030841Z 04003KT 23/19 A3001 RMK A01 T02250187  RH  079%=      5-min Rain = 0
KMD1 030842Z 04003KT 23/19 A3001 RMK A01 T02260188  RH  079%=      5-min Rain = 0
KMD1 030843Z 04002KT 23/19 A3001 RMK A01 T02260187  RH  079%=      5-min Rain = 0
KMD1 030844Z 04004KT 23/19 A3001 RMK A01 T02270188  RH  079%=      5-min Rain = 0
KMD1 030845Z 07003KT 23/19 A3001 RMK A01 T02260189  RH  079%=      5-min Rain = 0
KMD1 030846Z 09002KT 23/19 A3001 RMK A01 T02260189  RH  079%=      5-min Rain = 0
KMD1 030847Z 06002KT 23/19 A3001 RMK A01 T02270188  RH  079%=      5-min Rain = 0
KMD1 030848Z 08002KT 23/19 A3001 RMK A01 T02280189  RH  079%=      5-min Rain = 0
KMD1 030849Z 07002KT 23/19 A3001 RMK A01 T02280189  RH  079%=      5-min Rain = 0
KMD1 030850Z 08002KT 23/19 A3001 RMK A01 T02270189  RH  079%=      5-min Rain = 0
KMD1 030851Z 08002KT 23/19 A3001 RMK A01 T02270189  RH  079%=      5-min Rain = 0
KMD1 030852Z 08003KT 23/19 A3001 RMK A01 T02270190  RH  079%=      5-min Rain = 0
KMD1 030853Z 09003KT 23/19 A3001 RMK A01 T02270190  RH  080%=      5-min Rain = 0
KMD1 030854Z 09002KT 23/19 A3001 RMK A01 T02260190  RH  080%=      5-min Rain = 0
KMD1 030855Z 09002KT 23/19 A3001 RMK A01 T02260190  RH  080%=      5-min Rain = 0
KMD1 030856Z 10003KT 23/19 A3001 RMK A01 T02260191  RH  081%=      5-min Rain = 0
KMD1 030857Z 11004KT 23/19 A3001 RMK A01 T02260190  RH  080%=      5-min Rain = 0
KMD1 030858Z 11004KT 23/19 A3001 RMK A01 T02260191  RH  080%=      5-min Rain = 0
KMD1 030859Z 11004KT 23/19 A3001 RMK A01 T02250191  RH  081%=      5-min Rain = 0
KMD1 030900Z 11004KT 23/19 A3001 RMK A01 T02250191  RH  081%=      5-min Rain = 0
KMD1 030901Z 12004KT 22/19 A3001 RMK A01 T02240192  RH  082%=      5-min Rain = 0
KMD1 030902Z 12005KT 22/19 A3001 RMK A01 T02240192  RH  082%=      5-min Rain = 0
KMD1 030903Z 12005KT 23/19 A3001 RMK A01 T02250191  RH  081%=      5-min Rain = 0
KMD1 030904Z 12005KT 23/19 A3001 RMK A01 T02250192  RH  082%=      5-min Rain = 0
KMD1 030905Z 12004KT 23/19 A3001 RMK A01 T02250192  RH  082%=      5-min Rain = 0
KMD1 030906Z 12004KT 23/19 A3001 RMK A01 T02250192  RH  082%=      5-min Rain = 0
KMD1 030907Z 12003KT 23/19 A3001 RMK A01 T02250193  RH  082%=      5-min Rain = 0
KMD1 030908Z 12004KT 23/19 A3001 RMK A01 T02250193  RH  082%=      5-min Rain = 0
KMD1 030909Z 13003KT 23/19 A3001 RMK A01 T02250194  RH  083%=      5-min Rain = 0
KMD1 030910Z 12004KT 23/19 A3001 RMK A01 T02250194  RH  083%=      5-min Rain = 0
KMD1 030911Z 11003KT 23/19 A3001 RMK A01 T02250194  RH  083%=      5-min Rain = 0
KMD1 030912Z 11004KT 23/20 A3001 RMK A01 T02260195  RH  082%=      5-min Rain = 0
KMD1 030913Z 10003KT 23/20 A3001 RMK A01 T02270195  RH  082%=      5-min Rain = 0
KMD1 030914Z 10004KT 23/20 A3001 RMK A01 T02290196  RH  082%=      5-min Rain = 0
KMD1 030915Z 10004KT 23/20 A3001 RMK A01 T02290196  RH  082%=      5-min Rain = 0
KMD1 030916Z 09004KT 23/20 A3001 RMK A01 T02290197  RH  082%=      5-min Rain = 0
KMD1 030917Z 08004KT 23/20 A3001 RMK A01 T02290197  RH  082%=      5-min Rain = 0
KMD1 030918Z 08003KT 23/20 A3001 RMK A01 T02290197  RH  082%=      5-min Rain = 0
KMD1 030919Z 08003KT 23/20 A3001 RMK A01 T02290197  RH  082%=      5-min Rain = 0
KMD1 030920Z 09003KT 23/20 A3001 RMK A01 T02280198  RH  083%=      5-min Rain = 0
KMD1 030921Z 09003KT 23/20 A3001 RMK A01 T02280198  RH  083%=      5-min Rain = 0
KMD1 030922Z 09003KT 23/20 A3001 RMK A01 T02280198  RH  083%=      5-min Rain = 0
KMD1 030923Z 09003KT 23/20 A3001 RMK A01 T02280198  RH  083%=      5-min Rain = 0
KMD1 030924Z 10003KT 23/20 A3001 RMK A01 T02280199  RH  084%=      5-min Rain = 0
KMD1 030925Z 10003KT 23/20 A3001 RMK A01 T02280199  RH  084%=      5-min Rain = 0
KMD1 030926Z 10003KT 23/20 A3001 RMK A01 T02280199  RH  084%=      5-min Rain = 0
KMD1 030927Z 11004KT 23/20 A3001 RMK A01 T02270199  RH  084%=      5-min Rain = 0
KMD1 030928Z 11004KT 23/20 A3001 RMK A01 T02270199  RH  085%=      5-min Rain = 0
KMD1 030929Z 11004KT 23/20 A3001 RMK A01 T02260200  RH  085%=      5-min Rain = 0
KMD1 030930Z 11004KT 23/20 A3001 RMK A01 T02260200  RH  085%=      5-min Rain = 0
KMD1 030931Z 11004KT 23/20 A3002 RMK A01 T02260201  RH  086%=      5-min Rain = 0
KMD1 030932Z 11005KT 23/20 A3002 RMK A01 T02260201  RH  085%=      5-min Rain = 0
KMD1 030933Z 11004KT 23/20 A3002 RMK A01 T02270201  RH  085%=      5-min Rain = 0
KMD1 030934Z 11004KT 23/20 A3002 RMK A01 T02270201  RH  086%=      5-min Rain = 0
KMD1 030935Z 11004KT 23/20 A3002 RMK A01 T02270202  RH  086%=      5-min Rain = 0
KMD1 030936Z 11004KT 23/20 A3002 RMK A01 T02270202  RH  086%=      5-min Rain = 0
KMD1 030937Z 11004KT 23/20 A3002 RMK A01 T02270202  RH  086%=      5-min Rain = 0
KMD1 030938Z 11004KT 23/20 A3002 RMK A01 T02280203  RH  086%=      5-min Rain = 0
KMD1 030939Z 10004KT 23/20 A3002 RMK A01 T02280203  RH  086%=      5-min Rain = 0
KMD1 030940Z 10004KT 23/20 A3002 RMK A01 T02280203  RH  086%=      5-min Rain = 0
KMD1 030941Z 10004KT 23/20 A3002 RMK A01 T02290204  RH  086%=      5-min Rain = 0
KMD1 030942Z 10003KT 23/20 A3002 RMK A01 T02290204  RH  086%=      5-min Rain = 0
KMD1 030943Z 10003KT 23/20 A3002 RMK A01 T02300204  RH  085%=      5-min Rain = 0
KMD1 030944Z 10003KT 23/20 A3002 RMK A01 T02300204  RH  085%=      5-min Rain = 0
KMD1 030945Z 10003KT 23/20 A3002 RMK A01 T02300204  RH  085%=      5-min Rain = 0
KMD1 030946Z 11003KT 23/20 A3002 RMK A01 T02300204  RH  086%=      5-min Rain = 0
KMD1 030947Z 11003KT 23/21 A3002 RMK A01 T02300205  RH  086%=      5-min Rain = 0
KMD1 030948Z 11004KT 23/21 A3002 RMK A01 T02300205  RH  086%=      5-min Rain = 0
KMD1 030949Z 11004KT 23/21 A3002 RMK A01 T02290205  RH  086%=      5-min Rain = 0
KMD1 030950Z 11003KT 23/21 A3002 RMK A01 T02300206  RH  086%=      5-min Rain = 0
KMD1 030951Z 12004KT 23/21 A3002 RMK A01 T02300206  RH  086%=      5-min Rain = 0
KMD1 030952Z 11003KT 23/21 A3002 RMK A01 T02310206  RH  086%=      5-min Rain = 0
KMD1 030953Z 11003KT 23/21 A3002 RMK A01 T02310206  RH  086%=      5-min Rain = 0
KMD1 030954Z 12004KT 23/21 A3002 RMK A01 T02310205  RH  086%=      5-min Rain = 0
KMD1 030955Z 12004KT 23/21 A3002 RMK A01 T02310206  RH  086%=      5-min Rain = 0
KMD1 030956Z 12003KT 23/21 A3002 RMK A01 T02310206  RH  086%=      5-min Rain = 0
KMD1 030957Z 12003KT 23/21 A3002 RMK A01 T02310207  RH  086%=      5-min Rain = 0
KMD1 030958Z 13004KT 23/21 A3002 RMK A01 T02300207  RH  086%=      5-min Rain = 0
KMD1 030959Z 13004KT 23/21 A3002 RMK A01 T02300207  RH  087%=      5-min Rain = 0
KMD1 031000Z 13004KT 23/21 A3003 RMK A01 T02300207  RH  087%=      5-min Rain = 0
KMD1 031001Z 13003KT 23/21 A3003 RMK A01 T02300207  RH  087%=      5-min Rain = 0
KMD1 031002Z 13004KT 23/21 A3003 RMK A01 T02290207  RH  087%=      5-min Rain = 0
KMD1 031003Z 13004KT 23/21 A3003 RMK A01 T02290207  RH  087%=      5-min Rain = 0
KMD1 031004Z 14004KT 23/21 A3003 RMK A01 T02290207  RH  087%=      5-min Rain = 0
KMD1 031005Z 13003KT 23/21 A3003 RMK A01 T02290208  RH  088%=      5-min Rain = 0
KMD1 031006Z 13003KT 23/21 A3003 RMK A01 T02280207  RH  088%=      5-min Rain = 0
KMD1 031007Z 14003KT 23/21 A3003 RMK A01 T02280208  RH  088%=      5-min Rain = 0
KMD1 031008Z 14003KT 23/21 A3003 RMK A01 T02280208  RH  089%=      5-min Rain = 0
KMD1 031009Z 14003KT 23/21 A3003 RMK A01 T02280209  RH  089%=      5-min Rain = 0
KMD1 031010Z 15003KT 23/21 A3003 RMK A01 T02290209  RH  089%=      5-min Rain = 0
KMD1 031011Z 14003KT 23/21 A3003 RMK A01 T02290209  RH  089%=      5-min Rain = 0
KMD1 031012Z 15003KT 23/21 A3003 RMK A01 T02290210  RH  089%=      5-min Rain = 0
KMD1 031013Z 14002KT 23/21 A3003 RMK A01 T02290211  RH  090%=      5-min Rain = 0
KMD1 031014Z 13002KT 23/21 A3003 RMK A01 T02300212  RH  089%=      5-min Rain = 0
KMD1 031015Z 14001KT 23/21 A3003 RMK A01 T02300211  RH  089%=      5-min Rain = 0
KMD1 031016Z 14002KT 23/21 A3003 RMK A01 T02290210  RH  089%=      5-min Rain = 0
KMD1 031017Z 14002KT 23/21 A3003 RMK A01 T02290210  RH  089%=      5-min Rain = 0
KMD1 031018Z 16001KT 23/21 A3003 RMK A01 T02290210  RH  089%=      5-min Rain = 0
KMD1 031019Z 11001KT 23/21 A3003 RMK A01 T02290210  RH  089%=      5-min Rain = 0
KMD1 031020Z 15001KT 23/21 A3003 RMK A01 T02280209  RH  089%=      5-min Rain = 0
KMD1 031021Z 16002KT 23/21 A3003 RMK A01 T02280210  RH  090%=      5-min Rain = 0
KMD1 031022Z 15002KT 23/21 A3003 RMK A01 T02280211  RH  090%=      5-min Rain = 0
KMD1 031023Z 15001KT 23/21 A3003 RMK A01 T02280211  RH  090%=      5-min Rain = 0
KMD1 031024Z 17000KT 23/21 A3003 RMK A01 T02290212  RH  090%=      5-min Rain = 0
KMD1 031025Z 00000KT 23/21 A3003 RMK A01 T02280211  RH  090%=      5-min Rain = 0
KMD1 031026Z 00000KT 23/21 A3003 RMK A01 T02280211  RH  090%=      5-min Rain = 0
KMD1 031027Z 00000KT 23/21 A3003 RMK A01 T02280211  RH  090%=      5-min Rain = 0
KMD1 031028Z 00000KT 23/21 A3003 RMK A01 T02280211  RH  090%=      5-min Rain = 0
KMD1 031029Z 32000KT 23/21 A3003 RMK A01 T02270211  RH  090%=      5-min Rain = 0
KMD1 031030Z 31000KT 23/21 A3003 RMK A01 T02270211  RH  091%=      5-min Rain = 0
KMD1 031031Z 00000KT 23/21 A3003 RMK A01 T02260211  RH  091%=      5-min Rain = 0
KMD1 031032Z 00000KT 23/21 A3003 RMK A01 T02260210  RH  091%=      5-min Rain = 0
KMD1 031033Z 00000KT 23/21 A3003 RMK A01 T02250208  RH  090%=      5-min Rain = 0
KMD1 031034Z 00000KT 22/21 A3003 RMK A01 T02230205  RH  090%=      5-min Rain = 0
KMD1 031035Z 03000KT 22/20 A3003 RMK A01 T02210202  RH  089%=      5-min Rain = 0
KMD1 031036Z 03001KT 22/20 A3003 RMK A01 T02190200  RH  089%=      5-min Rain = 0
KMD1 031037Z 06000KT 22/20 A3003 RMK A01 T02180199  RH  089%=      5-min Rain = 0
KMD1 031038Z 07000KT 22/20 A3003 RMK A01 T02170199  RH  090%=      5-min Rain = 0
KMD1 031039Z 00000KT 22/20 A3003 RMK A01 T02160200  RH  090%=      5-min Rain = 0
KMD1 031040Z 00000KT 22/20 A3003 RMK A01 T02160200  RH  091%=      5-min Rain = 0
KMD1 031041Z 00000KT 22/20 A3003 RMK A01 T02160201  RH  091%=      5-min Rain = 0
KMD1 031042Z 13000KT 22/20 A3003 RMK A01 T02160201  RH  091%=      5-min Rain = 0
KMD1 031043Z 13000KT 22/20 A3003 RMK A01 T02150200  RH  091%=      5-min Rain = 0
KMD1 031044Z 18000KT 21/20 A3003 RMK A01 T02140199  RH  091%=      5-min Rain = 0
KMD1 031045Z 18002KT 21/20 A3003 RMK A01 T02140199  RH  091%=      5-min Rain = 0
KMD1 031046Z 19002KT 22/21 A3003 RMK A01 T02150206  RH  095%=      5-min Rain = 0
KMD1 031047Z 20001KT 22/21 A3003 RMK A01 T02180208  RH  094%=      5-min Rain = 0
KMD1 031048Z 21001KT 22/21 A3003 RMK A01 T02180206  RH  093%=      5-min Rain = 0
KMD1 031049Z 19001KT 22/21 A3003 RMK A01 T02180207  RH  094%=      5-min Rain = 0
KMD1 031050Z 19001KT 22/21 A3003 RMK A01 T02180206  RH  093%=      5-min Rain = 0
KMD1 031051Z 00000KT 22/21 A3003 RMK A01 T02180206  RH  093%=      5-min Rain = 0
KMD1 031052Z 24000KT 22/21 A3003 RMK A01 T02180207  RH  093%=      5-min Rain = 0
KMD1 031053Z 25001KT 22/21 A3003 RMK A01 T02190207  RH  093%=      5-min Rain = 0
KMD1 031054Z 24000KT 22/21 A3003 RMK A01 T02190207  RH  093%=      5-min Rain = 0
KMD1 031055Z 30000KT 22/21 A3003 RMK A01 T02190207  RH  093%=      5-min Rain = 0
KMD1 031056Z 30001KT 22/21 A3003 RMK A01 T02190209  RH  094%=      5-min Rain = 0
KMD1 031057Z 31001KT 22/21 A3003 RMK A01 T02200209  RH  094%=      5-min Rain = 0
KMD1 031058Z 32001KT 22/21 A3004 RMK A01 T02200208  RH  093%=      5-min Rain = 0
KMD1 031059Z 33001KT 22/21 A3004 RMK A01 T02180205  RH  092%=      5-min Rain = 0
KMD1 031100Z 36001KT 22/20 A3004 RMK A01 T02150202  RH  092%=      5-min Rain = 0
KMD1 031101Z 01002KT 21/20 A3004 RMK A01 T02130199  RH  092%=      5-min Rain = 0
KMD1 031102Z 00002KT 21/20 A3004 RMK A01 T02110199  RH  093%=      5-min Rain = 0
KMD1 031103Z 01002KT 21/20 A3004 RMK A01 T02100199  RH  093%=      5-min Rain = 0
KMD1 031104Z 01002KT 21/20 A3004 RMK A01 T02090199  RH  094%=      5-min Rain = 0
KMD1 031105Z 01002KT 21/20 A3004 RMK A01 T02080198  RH  094%=      5-min Rain = 0
KMD1 031106Z 02002KT 21/20 A3004 RMK A01 T02080199  RH  094%=      5-min Rain = 0
KMD1 031107Z 02001KT 21/20 A3004 RMK A01 T02080199  RH  095%=      5-min Rain = 0
KMD1 031108Z 01001KT 21/20 A3004 RMK A01 T02080199  RH  095%=      5-min Rain = 0
KMD1 031109Z 00001KT 21/20 A3004 RMK A01 T02070198  RH  095%=      5-min Rain = 0
KMD1 031110Z 00000KT 21/20 A3004 RMK A01 T02070198  RH  095%=      5-min Rain = 0
KMD1 031111Z 32000KT 21/20 A3004 RMK A01 T02060198  RH  095%=      5-min Rain = 0
KMD1 031112Z 33000KT 21/20 A3004 RMK A01 T02060198  RH  095%=      5-min Rain = 0
KMD1 031113Z 00000KT 21/20 A3004 RMK A01 T02070199  RH  095%=      5-min Rain = 0
KMD1 031114Z 00000KT 21/20 A3004 RMK A01 T02060198  RH  095%=      5-min Rain = 0
KMD1 031115Z 00000KT 21/20 A3004 RMK A01 T02060199  RH  095%=      5-min Rain = 0
KMD1 031116Z 00000KT 21/20 A3004 RMK A01 T02070200  RH  096%=      5-min Rain = 0
KMD1 031117Z 00000KT 21/20 A3004 RMK A01 T02070200  RH  096%=      5-min Rain = 0
KMD1 031118Z 00000KT 21/20 A3004 RMK A01 T02080201  RH  096%=      5-min Rain = 0
KMD1 031119Z 00000KT 21/20 A3004 RMK A01 T02090203  RH  096%=      5-min Rain = 0
KMD1 031120Z 00000KT 21/20 A3004 RMK A01 T02090202  RH  096%=      5-min Rain = 0
KMD1 031121Z 00000KT 21/20 A3004 RMK A01 T02090203  RH  096%=      5-min Rain = 0
KMD1 031122Z 00000KT 21/20 A3004 RMK A01 T02090201  RH  095%=      5-min Rain = 0
KMD1 031123Z 00000KT 21/20 A3004 RMK A01 T02070199  RH  095%=      5-min Rain = 0
KMD1 031124Z 13000KT 21/20 A3004 RMK A01 T02070198  RH  095%=      5-min Rain = 0
KMD1 031125Z 16002KT 21/20 A3004 RMK A01 T02070201  RH  096%=      5-min Rain = 0
KMD1 031126Z 17003KT 21/21 A3004 RMK A01 T02130212  RH  100%=      5-min Rain = 0
KMD1 031127Z 15003KT 22/21 A3005 RMK A01 T02160210  RH  097%=      5-min Rain = 0
KMD1 031128Z 15001KT 22/21 A3005 RMK A01 T02150207  RH  095%=      5-min Rain = 0
KMD1 031129Z 15001KT 22/21 A3005 RMK A01 T02150207  RH  095%=      5-min Rain = 0
KMD1 031130Z 15001KT 22/21 A3005 RMK A01 T02150207  RH  095%=      5-min Rain = 0
KMD1 031131Z 20001KT 22/21 A3005 RMK A01 T02150208  RH  096%=      5-min Rain = 0
KMD1 031132Z 20003KT 22/21 A3005 RMK A01 T02160208  RH  095%=      5-min Rain = 0
KMD1 031133Z 16002KT 22/21 A3005 RMK A01 T02170212  RH  097%=      5-min Rain = 0
KMD1 031134Z 16001KT 22/21 A3005 RMK A01 T02190212  RH  096%=      5-min Rain = 0
KMD1 031135Z 20001KT 22/21 A3005 RMK A01 T02200214  RH  096%=      5-min Rain = 0
KMD1 031136Z 20001KT 22/21 A3005 RMK A01 T02210214  RH  096%=      5-min Rain = 0
KMD1 031137Z 18001KT 22/21 A3005 RMK A01 T02210213  RH  095%=      5-min Rain = 0
KMD1 031138Z 17001KT 22/21 A3005 RMK A01 T02210213  RH  095%=      5-min Rain = 0
KMD1 031139Z 20001KT 22/21 A3005 RMK A01 T02220214  RH  095%=      5-min Rain = 0
KMD1 031140Z 19001KT 22/21 A3005 RMK A01 T02220214  RH  095%=      5-min Rain = 0
KMD1 031141Z 19001KT 22/22 A3005 RMK A01 T02230215  RH  095%=      5-min Rain = 0
KMD1 031142Z 21001KT 22/22 A3005 RMK A01 T02240215  RH  095%=      5-min Rain = 0
KMD1 031143Z 22001KT 22/22 A3005 RMK A01 T02240215  RH  094%=      5-min Rain = 0
KMD1 031144Z 23001KT 22/22 A3005 RMK A01 T02240215  RH  095%=      5-min Rain = 0
KMD1 031145Z 22002KT 22/21 A3005 RMK A01 T02240214  RH  094%=      5-min Rain = 0
KMD1 031146Z 22002KT 22/21 A3005 RMK A01 T02240214  RH  094%=      5-min Rain = 0
KMD1 031147Z 22002KT 22/21 A3005 RMK A01 T02240214  RH  094%=      5-min Rain = 0
KMD1 031148Z 22002KT 22/22 A3005 RMK A01 T02240215  RH  094%=      5-min Rain = 0
KMD1 031149Z 22002KT 22/21 A3005 RMK A01 T02240214  RH  094%=      5-min Rain = 0
KMD1 031150Z 20002KT 22/22 A3005 RMK A01 T02240215  RH  094%=      5-min Rain = 0
KMD1 031151Z 19001KT 23/22 A3005 RMK A01 T02250215  RH  094%=      5-min Rain = 0
KMD1 031152Z 18001KT 23/22 A3005 RMK A01 T02250215  RH  094%=      5-min Rain = 0
KMD1 031153Z 20001KT 23/22 A3005 RMK A01 T02250215  RH  094%=      5-min Rain = 0
KMD1 031154Z 21001KT 23/22 A3005 RMK A01 T02250215  RH  094%=      5-min Rain = 0
KMD1 031155Z 20001KT 23/22 A3005 RMK A01 T02260215  RH  093%=      5-min Rain = 0
KMD1 031156Z 20002KT 23/22 A3005 RMK A01 T02260215  RH  093%=      5-min Rain = 0
KMD1 031157Z 20002KT 23/22 A3005 RMK A01 T02260215  RH  094%=      5-min Rain = 0
KMD1 031158Z 22002KT 23/21 A3005 RMK A01 T02250214  RH  093%=      5-min Rain = 0
KMD1 031159Z 22002KT 23/21 A3005 RMK A01 T02250214  RH  093%=      5-min Rain = 0
KMD1 031200Z 23002KT 23/22 A3005 RMK A01 T02260215  RH  094%=      5-min Rain = 0
KMD1 031201Z 23002KT 23/22 A3005 RMK A01 T02260215  RH  093%=      5-min Rain = 0
KMD1 031202Z 22001KT 23/21 A3005 RMK A01 T02250214  RH  093%=      5-min Rain = 0
KMD1 031203Z 22001KT 23/21 A3005 RMK A01 T02260214  RH  093%=      5-min Rain = 0
KMD1 031204Z 22000KT 23/22 A3005 RMK A01 T02260215  RH  093%=      5-min Rain = 0
KMD1 031205Z 23001KT 23/22 A3005 RMK A01 T02260215  RH  093%=      5-min Rain = 0
KMD1 031206Z 21001KT 23/22 A3005 RMK A01 T02260215  RH  093%=      5-min Rain = 0
KMD1 031207Z 20001KT 23/22 A3005 RMK A01 T02270215  RH  093%=      5-min Rain = 0
KMD1 031208Z 20001KT 23/22 A3005 RMK A01 T02270215  RH  093%=      5-min Rain = 0
KMD1 031209Z 25000KT 23/21 A3005 RMK A01 T02260214  RH  093%=      5-min Rain = 0
KMD1 031210Z 24000KT 23/22 A3005 RMK A01 T02270215  RH  093%=      5-min Rain = 0
KMD1 031211Z 27001KT 23/22 A3005 RMK A01 T02270215  RH  093%=      5-min Rain = 0
KMD1 031212Z 24001KT 23/22 A3005 RMK A01 T02270215  RH  093%=      5-min Rain = 0
KMD1 031213Z 23001KT 23/22 A3005 RMK A01 T02280216  RH  093%=      5-min Rain = 0
KMD1 031214Z 25001KT 23/22 A3005 RMK A01 T02280216  RH  093%=      5-min Rain = 0
KMD1 031215Z 24001KT 23/22 A3005 RMK A01 T02290216  RH  093%=      5-min Rain = 0
KMD1 031216Z 24001KT 23/22 A3005 RMK A01 T02280216  RH  093%=      5-min Rain = 0
KMD1 031217Z 20000KT 23/22 A3006 RMK A01 T02290216  RH  092%=      5-min Rain = 0
KMD1 031218Z 21001KT 23/22 A3006 RMK A01 T02290216  RH  092%=      5-min Rain = 0
KMD1 031219Z 22001KT 23/22 A3006 RMK A01 T02290216  RH  092%=      5-min Rain = 0
KMD1 031220Z 21001KT 23/22 A3006 RMK A01 T02300216  RH  092%=      5-min Rain = 0
KMD1 031221Z 22001KT 23/22 A3006 RMK A01 T02300216  RH  092%=      5-min Rain = 0
KMD1 031222Z 21001KT 23/22 A3006 RMK A01 T02300216  RH  092%=      5-min Rain = 0
KMD1 031223Z 21001KT 23/22 A3006 RMK A01 T02300216  RH  092%=      5-min Rain = 0
KMD1 031224Z 20001KT 23/22 A3006 RMK A01 T02300216  RH  092%=      5-min Rain = 0
KMD1 031225Z 21001KT 23/22 A3006 RMK A01 T02310216  RH  092%=      5-min Rain = 0
KMD1 031226Z 22001KT 23/22 A3006 RMK A01 T02310217  RH  092%=      5-min Rain = 0
KMD1 031227Z 21001KT 23/22 A3006 RMK A01 T02310217  RH  092%=      5-min Rain = 0
KMD1 031228Z 21001KT 23/22 A3006 RMK A01 T02310218  RH  092%=      5-min Rain = 0
KMD1 031229Z 21001KT 23/22 A3006 RMK A01 T02320218  RH  092%=      5-min Rain = 0
KMD1 031230Z 21001KT 23/22 A3006 RMK A01 T02320218  RH  092%=      5-min Rain = 0
KMD1 031231Z 20001KT 23/22 A3006 RMK A01 T02320218  RH  092%=      5-min Rain = 0
KMD1 031232Z 21001KT 23/22 A3006 RMK A01 T02320217  RH  091%=      5-min Rain = 0
KMD1 031233Z 22001KT 23/22 A3006 RMK A01 T02330217  RH  091%=      5-min Rain = 0
KMD1 031234Z 19001KT 23/22 A3006 RMK A01 T02330217  RH  091%=      5-min Rain = 0
KMD1 031235Z 18002KT 23/22 A3006 RMK A01 T02330217  RH  091%=      5-min Rain = 0
KMD1 031236Z 20001KT 23/22 A3006 RMK A01 T02340218  RH  091%=      5-min Rain = 0
KMD1 031237Z 20001KT 23/22 A3006 RMK A01 T02340219  RH  091%=      5-min Rain = 0
KMD1 031238Z 20001KT 24/22 A3006 RMK A01 T02350220  RH  091%=      5-min Rain = 0
KMD1 031239Z 21001KT 24/22 A3006 RMK A01 T02350218  RH  090%=      5-min Rain = 0
KMD1 031240Z 19001KT 24/22 A3006 RMK A01 T02350218  RH  090%=      5-min Rain = 0
KMD1 031241Z 20001KT 24/22 A3006 RMK A01 T02350218  RH  090%=      5-min Rain = 0
KMD1 031242Z 18001KT 24/22 A3006 RMK A01 T02360219  RH  090%=      5-min Rain = 0
KMD1 031243Z 21001KT 24/22 A3006 RMK A01 T02360218  RH  089%=      5-min Rain = 0
KMD1 031244Z 19001KT 24/22 A3006 RMK A01 T02370217  RH  089%=      5-min Rain = 0
KMD1 031245Z 17001KT 24/22 A3006 RMK A01 T02360217  RH  089%=      5-min Rain = 0
KMD1 031246Z 18002KT 24/22 A3006 RMK A01 T02370217  RH  089%=      5-min Rain = 0
KMD1 031247Z 18002KT 24/22 A3006 RMK A01 T02370217  RH  089%=      5-min Rain = 0
KMD1 031248Z 17001KT 24/22 A3006 RMK A01 T02370218  RH  089%=      5-min Rain = 0
KMD1 031249Z 16002KT 24/22 A3006 RMK A01 T02370219  RH  089%=      5-min Rain = 0
KMD1 031250Z 16002KT 24/22 A3006 RMK A01 T02380218  RH  088%=      5-min Rain = 0
KMD1 031251Z 16002KT 24/22 A3006 RMK A01 T02380218  RH  089%=      5-min Rain = 0
KMD1 031252Z 16002KT 24/22 A3006 RMK A01 T02380218  RH  088%=      5-min Rain = 0
KMD1 031253Z 16002KT 24/22 A3006 RMK A01 T02380218  RH  089%=      5-min Rain = 0
KMD1 031254Z 16002KT 24/22 A3006 RMK A01 T02390219  RH  089%=      5-min Rain = 0
KMD1 031255Z 16003KT 24/22 A3006 RMK A01 T02390219  RH  088%=      5-min Rain = 0
KMD1 031256Z 16003KT 24/22 A3006 RMK A01 T02390218  RH  088%=      5-min Rain = 0
KMD1 031257Z 16003KT 24/22 A3006 RMK A01 T02400218  RH  088%=      5-min Rain = 0
KMD1 031258Z 15003KT 24/22 A3006 RMK A01 T02400218  RH  087%=      5-min Rain = 0
KMD1 031259Z 16002KT 24/22 A3006 RMK A01 T02400218  RH  087%=      5-min Rain = 0
KMD1 031300Z 15002KT 24/22 A3006 RMK A01 T02410219  RH  088%=      5-min Rain = 0
KMD1 031301Z 15004KT 24/22 A3006 RMK A01 T02410218  RH  087%=      5-min Rain = 0
KMD1 031302Z 15004KT 24/22 A3006 RMK A01 T02410217  RH  086%=      5-min Rain = 0
KMD1 031303Z 16003KT 24/22 A3006 RMK A01 T02410217  RH  086%=      5-min Rain = 0
KMD1 031304Z 16003KT 24/22 A3006 RMK A01 T02410217  RH  086%=      5-min Rain = 0
KMD1 031305Z 17003KT 24/22 A3007 RMK A01 T02420218  RH  086%=      5-min Rain = 0
KMD1 031306Z 17003KT 24/22 A3007 RMK A01 T02430217  RH  085%=      5-min Rain = 0
KMD1 031307Z 17003KT 24/22 A3007 RMK A01 T02430217  RH  085%=      5-min Rain = 0
KMD1 031308Z 17004KT 24/22 A3007 RMK A01 T02430216  RH  085%=      5-min Rain = 0
KMD1 031309Z 16004KT 24/22 A3007 RMK A01 T02430215  RH  085%=      5-min Rain = 0
KMD1 031310Z 17005KT 24/22 A3007 RMK A01 T02430216  RH  085%=      5-min Rain = 0
KMD1 031311Z 17005KT 24/22 A3007 RMK A01 T02430215  RH  084%=      5-min Rain = 0
KMD1 031312Z 20005KT 24/21 A3007 RMK A01 T02430214  RH  083%=      5-min Rain = 0
KMD1 031313Z 20004KT 24/21 A3007 RMK A01 T02430213  RH  083%=      5-min Rain = 0
KMD1 031314Z 20003KT 24/21 A3007 RMK A01 T02430214  RH  083%=      5-min Rain = 0
KMD1 031315Z 20004KT 24/21 A3007 RMK A01 T02440214  RH  084%=      5-min Rain = 0
KMD1 031316Z 19004KT 24/21 A3007 RMK A01 T02440212  RH  082%=      5-min Rain = 0
KMD1 031317Z 20005KT 24/21 A3007 RMK A01 T02440211  RH  082%=      5-min Rain = 0
KMD1 031318Z 18005KT 25/21 A3007 RMK A01 T02450213  RH  083%=      5-min Rain = 0
KMD1 031319Z 19005KT 25/21 A3007 RMK A01 T02460213  RH  082%=      5-min Rain = 0
KMD1 031320Z 19006KT 25/21 A3006 RMK A01 T02460211  RH  081%=      5-min Rain = 0
KMD1 031321Z 18007KT 25/21 A3006 RMK A01 T02460210  RH  081%=      5-min Rain = 0
KMD1 031322Z 19005KT 25/21 A3006 RMK A01 T02460209  RH  080%=      5-min Rain = 0
KMD1 031323Z 19004KT 25/21 A3007 RMK A01 T02460210  RH  080%=      5-min Rain = 0
KMD1 031324Z 18005KT 25/21 A3007 RMK A01 T02470211  RH  080%=      5-min Rain = 0
KMD1 031325Z 18006KT 25/21 A3007 RMK A01 T02480210  RH  079%=      5-min Rain = 0
KMD1 031326Z 18006KT 25/21 A3007 RMK A01 T02480209  RH  079%=      5-min Rain = 0
KMD1 031327Z 18006KT 25/21 A3007 RMK A01 T02480208  RH  078%=      5-min Rain = 0
KMD1 031328Z 18006KT 25/21 A3007 RMK A01 T02490209  RH  078%=      5-min Rain = 0
KMD1 031329Z 18005KT 25/21 A3007 RMK A01 T02490209  RH  079%=      5-min Rain = 0
KMD1 031330Z 17006KT 25/21 A3007 RMK A01 T02500209  RH  078%=      5-min Rain = 0
KMD1 031331Z 18005KT 25/21 A3007 RMK A01 T02500206  RH  076%=      5-min Rain = 0
KMD1 031332Z 18007KT 25/21 A3007 RMK A01 T02500205  RH  076%=      5-min Rain = 0
KMD1 031333Z 18007KT 25/21 A3007 RMK A01 T02500205  RH  076%=      5-min Rain = 0
KMD1 031334Z 18006KT 25/20 A3007 RMK A01 T02510204  RH  076%=      5-min Rain = 0
KMD1 031335Z 18005KT 25/20 A3007 RMK A01 T02510204  RH  075%=      5-min Rain = 0
KMD1 031336Z 18005KT 25/20 A3007 RMK A01 T02520203  RH  074%=      5-min Rain = 0
KMD1 031337Z 18007KT 25/20 A3007 RMK A01 T02520204  RH  075%=      5-min Rain = 0
KMD1 031338Z 17006KT 25/20 A3007 RMK A01 T02520203  RH  074%=      5-min Rain = 0
KMD1 031339Z 18007KT 25/20 A3007 RMK A01 T02530202  RH  074%=      5-min Rain = 0
KMD1 031340Z 18006KT 25/20 A3007 RMK A01 T02530203  RH  074%=      5-min Rain = 0
KMD1 031341Z 19006KT 25/20 A3007 RMK A01 T02530200  RH  072%=      5-min Rain = 0
KMD1 031342Z 19005KT 25/20 A3007 RMK A01 T02530204  RH  074%=      5-min Rain = 0
KMD1 031343Z 20007KT 26/20 A3007 RMK A01 T02550201  RH  072%=      5-min Rain = 0
KMD1 031344Z 20005KT 26/20 A3007 RMK A01 T02550202  RH  072%=      5-min Rain = 0
KMD1 031345Z 18006KT 26/20 A3007 RMK A01 T02550200  RH  072%=      5-min Rain = 0
KMD1 031346Z 18007KT 26/20 A3007 RMK A01 T02560201  RH  072%=      5-min Rain = 0
KMD1 031347Z 18005KT 26/20 A3007 RMK A01 T02570199  RH  070%=      5-min Rain = 0
KMD1 031348Z 19005KT 26/20 A3007 RMK A01 T02580198  RH  070%=      5-min Rain = 0
KMD1 031349Z 18007KT 26/20 A3007 RMK A01 T02580201  RH  071%=      5-min Rain = 0
KMD1 031350Z 18008KT 26/20 A3007 RMK A01 T02590197  RH  069%=      5-min Rain = 0
KMD1 031351Z 18007KT 26/20 A3007 RMK A01 T02590197  RH  069%=      5-min Rain = 0
KMD1 031352Z 19007KT 26/20 A3007 RMK A01 T02590196  RH  068%=      5-min Rain = 0
KMD1 031353Z 19007KT 26/20 A3007 RMK A01 T02580196  RH  069%=      5-min Rain = 0
KMD1 031354Z 18006KT 26/20 A3007 RMK A01 T02580195  RH  068%=      5-min Rain = 0
KMD1 031355Z 18006KT 26/20 A3007 RMK A01 T02580195  RH  068%=      5-min Rain = 0
KMD1 031356Z 20006KT 26/20 A3007 RMK A01 T02580195  RH  068%=      5-min Rain = 0
KMD1 031357Z 20007KT 26/20 A3007 RMK A01 T02590195  RH  068%=      5-min Rain = 0
KMD1 031358Z 19008KT 26/19 A3007 RMK A01 T02580192  RH  067%=      5-min Rain = 0
KMD1 031359Z 19006KT 26/19 A3007 RMK A01 T02580189  RH  066%=      5-min Rain = 0
KMD1 031400Z 19008KT 26/19 A3007 RMK A01 T02590189  RH  065%=      5-min Rain = 0
KMD1 031401Z 19007KT 26/19 A3007 RMK A01 T02600189  RH  065%=      5-min Rain = 0
KMD1 031402Z 19005KT 26/19 A3007 RMK A01 T02610189  RH  065%=      5-min Rain = 0
KMD1 031403Z 18007KT 26/19 A3007 RMK A01 T02620191  RH  065%=      5-min Rain = 0
KMD1 031404Z 19006KT 26/19 A3007 RMK A01 T02630191  RH  064%=      5-min Rain = 0
KMD1 031405Z 18005KT 26/19 A3007 RMK A01 T02640191  RH  064%=      5-min Rain = 0
KMD1 031406Z 18007KT 26/19 A3007 RMK A01 T02640188  RH  063%=      5-min Rain = 0
KMD1 031407Z 19007KT 27/19 A3007 RMK A01 T02650189  RH  063%=      5-min Rain = 0
KMD1 031408Z 20007KT 26/19 A3007 RMK A01 T02640189  RH  063%=      5-min Rain = 0
KMD1 031409Z 18007KT 26/19 A3007 RMK A01 T02640189  RH  064%=      5-min Rain = 0
KMD1 031410Z 19007KT 26/18 A3007 RMK A01 T02630184  RH  062%=      5-min Rain = 0
KMD1 031411Z 18005KT 26/18 A3007 RMK A01 T02640182  RH  061%=      5-min Rain = 0
KMD1 031412Z 18008KT 27/18 A3007 RMK A01 T02660183  RH  061%=      5-min Rain = 0
KMD1 031413Z 18007KT 27/18 A3007 RMK A01 T02670180  RH  059%=      5-min Rain = 0
KMD1 031414Z 18008KT 27/18 A3007 RMK A01 T02680181  RH  059%=      5-min Rain = 0
KMD1 031415Z 20008KT 27/18 A3008 RMK A01 T02690178  RH  057%=      5-min Rain = 0
KMD1 031416Z 20006KT 27/18 A3008 RMK A01 T02680178  RH  058%=      5-min Rain = 0
KMD1 031417Z 20006KT 27/18 A3008 RMK A01 T02680179  RH  058%=      5-min Rain = 0
KMD1 031418Z 21005KT 27/18 A3008 RMK A01 T02680183  RH  060%=      5-min Rain = 0
KMD1 031419Z 20008KT 27/18 A3008 RMK A01 T02690182  RH  059%=      5-min Rain = 0
KMD1 031420Z 21007KT 27/18 A3008 RMK A01 T02690181  RH  059%=      5-min Rain = 0
KMD1 031421Z 20008KT 27/18 A3008 RMK A01 T02690180  RH  058%=      5-min Rain = 0
KMD1 031422Z 19006KT 27/18 A3008 RMK A01 T02690180  RH  058%=      5-min Rain = 0
KMD1 031423Z 20006KT 27/18 A3008 RMK A01 T02690180  RH  058%=      5-min Rain = 0
KMD1 031424Z 18007KT 27/18 A3008 RMK A01 T02700177  RH  057%=      5-min Rain = 0
KMD1 031425Z 17007KT 27/18 A3008 RMK A01 T02700180  RH  058%=      5-min Rain = 0
KMD1 031426Z 18007KT 27/18 A3008 RMK A01 T02740181  RH  057%=      5-min Rain = 0
KMD1 031427Z 17007KT 28/18 A3008 RMK A01 T02750176  RH  055%=      5-min Rain = 0
KMD1 031428Z 20004KT 27/18 A3008 RMK A01 T02740178  RH  056%=      5-min Rain = 0
KMD1 031429Z 20005KT 28/18 A3008 RMK A01 T02750183  RH  058%=      5-min Rain = 0
KMD1 031430Z 20004KT 28/18 A3008 RMK A01 T02760182  RH  056%=      5-min Rain = 0
KMD1 031431Z 18005KT 28/18 A3008 RMK A01 T02770182  RH  056%=      5-min Rain = 0
KMD1 031432Z 17008KT 28/18 A3008 RMK A01 T02780178  RH  055%=      5-min Rain = 0
KMD1 031433Z 18006KT 28/18 A3008 RMK A01 T02780178  RH  055%=      5-min Rain = 0
KMD1 031434Z 18005KT 28/18 A3008 RMK A01 T02780177  RH  054%=      5-min Rain = 0
KMD1 031435Z 18005KT 28/18 A3008 RMK A01 T02790179  RH  055%=      5-min Rain = 0
KMD1 031436Z 18005KT 28/18 A3008 RMK A01 T02790180  RH  055%=      5-min Rain = 0
KMD1 031437Z 18005KT 28/18 A3008 RMK A01 T02800180  RH  055%=      5-min Rain = 0
KMD1 031438Z 18006KT 28/18 A3008 RMK A01 T02800177  RH  054%=      5-min Rain = 0
KMD1 031439Z 18005KT 28/18 A3008 RMK A01 T02790180  RH  055%=      5-min Rain = 0
KMD1 031440Z 19006KT 28/18 A3008 RMK A01 T02790180  RH  055%=      5-min Rain = 0
KMD1 031441Z 21006KT 28/18 A3008 RMK A01 T02800181  RH  055%=      5-min Rain = 0
KMD1 031442Z 20005KT 28/18 A3008 RMK A01 T02800177  RH  054%=      5-min Rain = 0
KMD1 031443Z 22005KT 28/18 A3008 RMK A01 T02800176  RH  053%=      5-min Rain = 0
KMD1 031444Z 21006KT 28/18 A3008 RMK A01 T02820179  RH  053%=      5-min Rain = 0
KMD1 031445Z 19006KT 28/18 A3008 RMK A01 T02840175  RH  052%=      5-min Rain = 0
KMD1 031446Z 18006KT 28/18 A3007 RMK A01 T02830179  RH  053%=      5-min Rain = 0
KMD1 031447Z 19005KT 28/18 A3007 RMK A01 T02820179  RH  054%=      5-min Rain = 0
KMD1 031448Z 18005KT 28/18 A3007 RMK A01 T02830177  RH  053%=      5-min Rain = 0
KMD1 031449Z 20007KT 28/18 A3007 RMK A01 T02840176  RH  052%=      5-min Rain = 0
KMD1 031450Z 21006KT 28/17 A3007 RMK A01 T02840169  RH  050%=      5-min Rain = 0
KMD1 031451Z 21006KT 28/17 A3007 RMK A01 T02840169  RH  050%=      5-min Rain = 0
KMD1 031452Z 19006KT 28/17 A3007 RMK A01 T02840170  RH  050%=      5-min Rain = 0
KMD1 031453Z 20008KT 29/16 A3007 RMK A01 T02850164  RH  048%=      5-min Rain = 0
KMD1 031454Z 20006KT 28/16 A3008 RMK A01 T02840164  RH  048%=      5-min Rain = 0
KMD1 031455Z 20006KT 28/17 A3008 RMK A01 T02830165  RH  049%=      5-min Rain = 0
KMD1 031456Z 19006KT 28/17 A3008 RMK A01 T02830167  RH  049%=      5-min Rain = 0
KMD1 031457Z 18006KT 28/17 A3008 RMK A01 T02830171  RH  051%=      5-min Rain = 0
KMD1 031458Z 18005KT 28/17 A3008 RMK A01 T02840169  RH  050%=      5-min Rain = 0
KMD1 031459Z 17004KT 29/17 A3008 RMK A01 T02850167  RH  049%=      5-min Rain = 0
KMD1 031500Z 17005KT 29/17 A3008 RMK A01 T02870167  RH  048%=      5-min Rain = 0
KMD1 031501Z 18006KT 29/17 A3008 RMK A01 T02890165  RH  047%=      5-min Rain = 0
KMD1 031502Z 19006KT 29/17 A3008 RMK A01 T02900165  RH  047%=      5-min Rain = 0
KMD1 031503Z 18005KT 29/17 A3008 RMK A01 T02910165  RH  047%=      5-min Rain = 0
KMD1 031504Z 18008KT 29/16 A3008 RMK A01 T02920164  RH  046%=      5-min Rain = 0
KMD1 031505Z 19007KT 29/16 A3008 RMK A01 T02920161  RH  045%=      5-min Rain = 0
KMD1 031506Z 20004KT 29/16 A3008 RMK A01 T02900161  RH  046%=      5-min Rain = 0
KMD1 031507Z 18007KT 29/16 A3008 RMK A01 T02880162  RH  046%=      5-min Rain = 0
KMD1 031508Z 20008KT 29/16 A3008 RMK A01 T02890159  RH  045%=      5-min Rain = 0
KMD1 031509Z 19005KT 29/16 A3008 RMK A01 T02890160  RH  046%=      5-min Rain = 0
KMD1 031510Z 20005KT 29/16 A3008 RMK A01 T02890161  RH  046%=      5-min Rain = 0
KMD1 031511Z 20004KT 29/16 A3008 RMK A01 T02900163  RH  046%=      5-min Rain = 0
KMD1 031512Z 20003KT 29/16 A3008 RMK A01 T02910163  RH  046%=      5-min Rain = 0
KMD1 031513Z 18008KT 29/16 A3008 RMK A01 T02930162  RH  045%=      5-min Rain = 0
KMD1 031514Z 17006KT 29/16 A3008 RMK A01 T02920160  RH  045%=      5-min Rain = 0
KMD1 031515Z 20007KT 29/16 A3008 RMK A01 T02910161  RH  045%=      5-min Rain = 0
KMD1 031516Z 19005KT 29/16 A3008 RMK A01 T02910157  RH  044%=      5-min Rain = 0
KMD1 031517Z 19004KT 29/16 A3008 RMK A01 T02900159  RH  045%=      5-min Rain = 0
KMD1 031518Z 18005KT 29/16 A3008 RMK A01 T02900156  RH  044%=      5-min Rain = 0
KMD1 031519Z 19004KT 29/16 A3008 RMK A01 T02920156  RH  044%=      5-min Rain = 0
KMD1 031520Z 19003KT 29/15 A3008 RMK A01 T02920152  RH  042%=      5-min Rain = 0
KMD1 031521Z 16004KT 29/15 A3008 RMK A01 T02920154  RH  043%=      5-min Rain = 0
KMD1 031522Z 18007KT 30/16 A3008 RMK A01 T02950155  RH  042%=      5-min Rain = 0
KMD1 031523Z 19008KT 30/16 A3008 RMK A01 T02970155  RH  042%=      5-min Rain = 0
KMD1 031524Z 20005KT 30/16 A3008 RMK A01 T02980157  RH  043%=      5-min Rain = 0
KMD1 031525Z 19005KT 30/15 A3008 RMK A01 T02970153  RH  042%=      5-min Rain = 0
KMD1 031526Z 18005KT 30/16 A3008 RMK A01 T02960156  RH  043%=      5-min Rain = 0
KMD1 031527Z 16005KT 30/15 A3008 RMK A01 T02970149  RH  041%=      5-min Rain = 0
KMD1 031528Z 16005KT 30/15 A3008 RMK A01 T02980150  RH  040%=      5-min Rain = 0
KMD1 031529Z 17008KT 30/15 A3008 RMK A01 T03010151  RH  040%=      5-min Rain = 0
KMD1 031530Z 18007KT 30/15 A3008 RMK A01 T03020150  RH  040%=      5-min Rain = 0
KMD1 031531Z 20006KT 30/15 A3008 RMK A01 T03030154  RH  041%=      5-min Rain = 0
KMD1 031532Z 21007KT 30/15 A3008 RMK A01 T03020150  RH  040%=      5-min Rain = 0
KMD1 031533Z 19006KT 30/15 A3008 RMK A01 T03020145  RH  038%=      5-min Rain = 0
KMD1 031534Z 16004KT 30/15 A3008 RMK A01 T03010145  RH  039%=      5-min Rain = 0
KMD1 031535Z 22005KT 30/15 A3008 RMK A01 T03000146  RH  039%=      5-min Rain = 0
KMD1 031536Z 21005KT 30/15 A3008 RMK A01 T03000148  RH  040%=      5-min Rain = 0
KMD1 031537Z 19005KT 30/15 A3008 RMK A01 T03000148  RH  040%=      5-min Rain = 0
KMD1 031538Z 18007KT 30/15 A3007 RMK A01 T03010147  RH  039%=      5-min Rain = 0
KMD1 031539Z 17008KT 30/15 A3007 RMK A01 T03030147  RH  039%=      5-min Rain = 0
KMD1 031540Z 17008KT 31/15 A3007 RMK A01 T03050146  RH  038%=      5-min Rain = 0
KMD1 031541Z 16008KT 31/15 A3007 RMK A01 T03060146  RH  038%=      5-min Rain = 0
KMD1 031542Z 17009KT 31/15 A3008 RMK A01 T03060146  RH  038%=      5-min Rain = 0
KMD1 031543Z 17008KT 31/15 A3008 RMK A01 T03060146  RH  038%=      5-min Rain = 0
KMD1 031544Z 18009KT 31/14 A3008 RMK A01 T03050142  RH  037%=      5-min Rain = 0
KMD1 031545Z 18007KT 31/14 A3008 RMK A01 T03050139  RH  036%=      5-min Rain = 0
KMD1 031546Z 19006KT 30/14 A3008 RMK A01 T03030142  RH  037%=      5-min Rain = 0
KMD1 031547Z 20005KT 30/14 A3008 RMK A01 T03030144  RH  038%=      5-min Rain = 0
KMD1 031548Z 19006KT 30/14 A3008 RMK A01 T03040143  RH  038%=      5-min Rain = 0
KMD1 031549Z 22005KT 30/15 A3008 RMK A01 T03040147  RH  038%=      5-min Rain = 0
KMD1 031550Z 21004KT 31/14 A3008 RMK A01 T03050144  RH  038%=      5-min Rain = 0
KMD1 031551Z 17005G10KT 30/14 A3008 RMK A01 T03040144  RH  038%=      5-min Rain = 0
KMD1 031552Z 16011KT 31/14 A3008 RMK A01 T03070141  RH  036%=      5-min Rain = 0
KMD1 031553Z 16009KT 31/14 A3008 RMK A01 T03090139  RH  035%=      5-min Rain = 0
KMD1 031554Z 15010KT 31/14 A3008 RMK A01 T03090135  RH  035%=      5-min Rain = 0
KMD1 031555Z 16010KT 31/14 A3008 RMK A01 T03100137  RH  035%=      5-min Rain = 0
KMD1 031556Z 18007KT 31/14 A3008 RMK A01 T03120138  RH  035%=      5-min Rain = 0
KMD1 031557Z 17006KT 31/14 A3008 RMK A01 T03120142  RH  036%=      5-min Rain = 0
KMD1 031558Z 17008KT 31/14 A3008 RMK A01 T03130140  RH  035%=      5-min Rain = 0
KMD1 031559Z 16007KT 31/14 A3008 RMK A01 T03130140  RH  035%=      5-min Rain = 0
KMD1 031600Z 16009KT 31/14 A3008 RMK A01 T03120143  RH  036%=      5-min Rain = 0
KMD1 031601Z 15009KT 31/14 A3008 RMK A01 T03130142  RH  036%=      5-min Rain = 0
KMD1 031602Z 15009KT 31/15 A3008 RMK A01 T03130145  RH  036%=      5-min Rain = 0
KMD1 031603Z 16007KT 31/14 A3008 RMK A01 T03130141  RH  035%=      5-min Rain = 0
KMD1 031604Z 17008KT 31/14 A3008 RMK A01 T03130140  RH  035%=      5-min Rain = 0
KMD1 031605Z 17010KT 31/14 A3008 RMK A01 T03130138  RH  034%=      5-min Rain = 0
KMD1 031606Z 17008KT 31/14 A3008 RMK A01 T03130136  RH  034%=      5-min Rain = 0
KMD1 031607Z 16010KT 31/14 A3008 RMK A01 T03120138  RH  035%=      5-min Rain = 0
KMD1 031608Z 17009KT 31/14 A3008 RMK A01 T03140139  RH  035%=      5-min Rain = 0
KMD1 031609Z 18009KT 31/14 A3008 RMK A01 T03140136  RH  034%=      5-min Rain = 0
KMD1 031610Z 19007KT 31/13 A3008 RMK A01 T03120131  RH  033%=      5-min Rain = 0
KMD1 031611Z 18007KT 31/13 A3008 RMK A01 T03120132  RH  033%=      5-min Rain = 0
KMD1 031612Z 18010KT 32/13 A3008 RMK A01 T03160126  RH  031%=      5-min Rain = 0
KMD1 031613Z 18008KT 32/13 A3008 RMK A01 T03170126  RH  031%=      5-min Rain = 0
KMD1 031614Z 19008KT 32/13 A3008 RMK A01 T03160130  RH  032%=      5-min Rain = 0
KMD1 031615Z 19009KT 32/13 A3008 RMK A01 T03170128  RH  032%=      5-min Rain = 0
KMD1 031616Z 18008KT 32/13 A3008 RMK A01 T03150125  RH  031%=      5-min Rain = 0
KMD1 031617Z 16005KT 31/13 A3008 RMK A01 T03140130  RH  032%=      5-min Rain = 0
KMD1 031618Z 16003KT 31/13 A3008 RMK A01 T03140131  RH  033%=      5-min Rain = 0
KMD1 031619Z 19004KT 32/13 A3008 RMK A01 T03150132  RH  033%=      5-min Rain = 0
KMD1 031620Z 17004KT 32/13 A3008 RMK A01 T03160134  RH  033%=      5-min Rain = 0
KMD1 031621Z 17002KT 32/14 A3008 RMK A01 T03160136  RH  033%=      5-min Rain = 0
KMD1 031622Z 19003KT 32/14 A3008 RMK A01 T03180136  RH  033%=      5-min Rain = 0
KMD1 031623Z 19007KT 32/14 A3008 RMK A01 T03190136  RH  033%=      5-min Rain = 0
KMD1 031624Z 19005G10KT 32/13 A3008 RMK A01 T03190132  RH  032%=      5-min Rain = 0
KMD1 031625Z 19007KT 32/12 A3008 RMK A01 T03210122  RH  030%=      5-min Rain = 0
KMD1 031626Z 19004KT 32/12 A3008 RMK A01 T03190122  RH  030%=      5-min Rain = 0
KMD1 031627Z 21005KT 32/12 A3008 RMK A01 T03170123  RH  030%=      5-min Rain = 0
KMD1 031628Z 21005KT 32/13 A3008 RMK A01 T03180130  RH  032%=      5-min Rain = 0
KMD1 031629Z 22005KT 32/13 A3008 RMK A01 T03200132  RH  032%=      5-min Rain = 0
KMD1 031630Z 19007KT 32/13 A3008 RMK A01 T03220129  RH  031%=      5-min Rain = 0
KMD1 031631Z 18006KT 32/13 A3008 RMK A01 T03220125  RH  030%=      5-min Rain = 0
KMD1 031632Z 20007KT 32/13 A3008 RMK A01 T03230129  RH  031%=      5-min Rain = 0
KMD1 031633Z 20007KT 32/13 A3008 RMK A01 T03230129  RH  031%=      5-min Rain = 0
KMD1 031634Z 19008KT 32/13 A3008 RMK A01 T03230130  RH  031%=      5-min Rain = 0
KMD1 031635Z 19009KT 32/13 A3008 RMK A01 T03220129  RH  031%=      5-min Rain = 0
KMD1 031636Z 19007KT 32/13 A3008 RMK A01 T03210129  RH  031%=      5-min Rain = 0
KMD1 031637Z 20005KT 32/13 A3008 RMK A01 T03210128  RH  031%=      5-min Rain = 0
KMD1 031638Z 21007KT 32/13 A3008 RMK A01 T03210129  RH  031%=      5-min Rain = 0
KMD1 031639Z 20005KT 32/13 A3008 RMK A01 T03220128  RH  031%=      5-min Rain = 0
KMD1 031640Z 19005KT 32/12 A3008 RMK A01 T03210124  RH  030%=      5-min Rain = 0
KMD1 031641Z 19008KT 32/13 A3008 RMK A01 T03220132  RH  032%=      5-min Rain = 0
KMD1 031642Z 19010KT 33/13 A3007 RMK A01 T03250129  RH  030%=      5-min Rain = 0
KMD1 031643Z 19010KT 33/13 A3007 RMK A01 T03250128  RH  030%=      5-min Rain = 0
KMD1 031644Z 20007KT 32/13 A3007 RMK A01 T03240126  RH  030%=      5-min Rain = 0
KMD1 031645Z 19007KT 32/13 A3007 RMK A01 T03240128  RH  030%=      5-min Rain = 0
KMD1 031646Z 19008KT 32/13 A3007 RMK A01 T03240127  RH  030%=      5-min Rain = 0
KMD1 031647Z 20007KT 33/13 A3007 RMK A01 T03250125  RH  030%=      5-min Rain = 0
KMD1 031648Z 18004KT 32/13 A3007 RMK A01 T03240126  RH  030%=      5-min Rain = 0
KMD1 031649Z 16006KT 32/13 A3007 RMK A01 T03240127  RH  030%=      5-min Rain = 0
KMD1 031650Z 17006KT 32/12 A3007 RMK A01 T03240124  RH  029%=      5-min Rain = 0
KMD1 031651Z 20008KT 32/13 A3007 RMK A01 T03230128  RH  031%=      5-min Rain = 0
KMD1 031652Z 21004KT 32/13 A3007 RMK A01 T03220130  RH  031%=      5-min Rain = 0
KMD1 031653Z 21004KT 32/13 A3007 RMK A01 T03220134  RH  032%=      5-min Rain = 0
KMD1 031654Z 18006KT 33/13 A3007 RMK A01 T03250133  RH  031%=      5-min Rain = 0
KMD1 031655Z 19005KT 33/13 A3007 RMK A01 T03270131  RH  030%=      5-min Rain = 0
KMD1 031656Z 21007KT 33/13 A3007 RMK A01 T03280130  RH  030%=      5-min Rain = 0
KMD1 031657Z 21005KT 33/13 A3007 RMK A01 T03270129  RH  030%=      5-min Rain = 0
KMD1 031658Z 18006KT 33/13 A3007 RMK A01 T03260132  RH  031%=      5-min Rain = 0
KMD1 031659Z 16009KT 33/13 A3007 RMK A01 T03280129  RH  030%=      5-min Rain = 0
KMD1 031700Z 17006KT 33/13 A3007 RMK A01 T03280126  RH  029%=      5-min Rain = 0
KMD1 031701Z 17005KT 33/13 A3007 RMK A01 T03270126  RH  029%=      5-min Rain = 0
KMD1 031702Z 17011KT 33/13 A3007 RMK A01 T03300127  RH  029%=      5-min Rain = 0
KMD1 031703Z 16011KT 33/12 A3007 RMK A01 T03340123  RH  028%=      5-min Rain = 0
KMD1 031704Z 16009KT 34/12 A3007 RMK A01 T03350119  RH  027%=      5-min Rain = 0
KMD1 031705Z 16009KT 33/12 A3007 RMK A01 T03330118  RH  027%=      5-min Rain = 0
KMD1 031706Z 17007KT 33/11 A3007 RMK A01 T03320114  RH  026%=      5-min Rain = 0
KMD1 031707Z 18006KT 33/12 A3007 RMK A01 T03300117  RH  027%=      5-min Rain = 0
KMD1 031708Z 19009KT 33/11 A3007 RMK A01 T03310112  RH  026%=      5-min Rain = 0
KMD1 031709Z 19008KT 33/11 A3007 RMK A01 T03330113  RH  026%=      5-min Rain = 0
KMD1 031710Z 18009KT 34/11 A3007 RMK A01 T03350114  RH  026%=      5-min Rain = 0
KMD1 031711Z 18008KT 33/12 A3007 RMK A01 T03340117  RH  027%=      5-min Rain = 0
KMD1 031712Z 19008KT 33/12 A3007 RMK A01 T03340119  RH  027%=      5-min Rain = 0
KMD1 031713Z 18010KT 33/12 A3007 RMK A01 T03340123  RH  028%=      5-min Rain = 0
KMD1 031714Z 17009KT 34/12 A3007 RMK A01 T03360116  RH  026%=      5-min Rain = 0
KMD1 031715Z 17007KT 33/11 A3007 RMK A01 T03330113  RH  026%=      5-min Rain = 0
KMD1 031716Z 18007KT 33/11 A3007 RMK A01 T03300113  RH  026%=      5-min Rain = 0
KMD1 031717Z 17008KT 33/12 A3007 RMK A01 T03300116  RH  027%=      5-min Rain = 0
KMD1 031718Z 16009KT 33/11 A3007 RMK A01 T03330109  RH  025%=      5-min Rain = 0
KMD1 031719Z 17009KT 34/11 A3007 RMK A01 T03350112  RH  026%=      5-min Rain = 0
KMD1 031720Z 20007KT 34/11 A3007 RMK A01 T03370114  RH  026%=      5-min Rain = 0
KMD1 031721Z 22007KT 34/12 A3007 RMK A01 T03350117  RH  027%=      5-min Rain = 0
KMD1 031722Z 22008KT 33/12 A3007 RMK A01 T03340121  RH  027%=      5-min Rain = 0
KMD1 031723Z 21004KT 33/12 A3007 RMK A01 T03340120  RH  027%=      5-min Rain = 0
KMD1 031724Z 18006KT 33/12 A3007 RMK A01 T03340122  RH  028%=      5-min Rain = 0
KMD1 031725Z 19008KT 34/12 A3007 RMK A01 T03350122  RH  027%=      5-min Rain = 0
KMD1 031726Z 20009KT 33/13 A3007 RMK A01 T03340128  RH  029%=      5-min Rain = 0
KMD1 031727Z 19008KT 33/13 A3007 RMK A01 T03340129  RH  029%=      5-min Rain = 0
KMD1 031728Z 17009KT 33/13 A3006 RMK A01 T03340130  RH  029%=      5-min Rain = 0
KMD1 031729Z 18010KT 33/13 A3006 RMK A01 T03340129  RH  029%=      5-min Rain = 0
KMD1 031730Z 20010KT 34/13 A3006 RMK A01 T03360130  RH  029%=      5-min Rain = 0
KMD1 031731Z 21009KT 34/13 A3006 RMK A01 T03370130  RH  029%=      5-min Rain = 0
KMD1 031732Z 20007KT 34/13 A3006 RMK A01 T03360134  RH  030%=      5-min Rain = 0
KMD1 031733Z 20007KT 34/13 A3006 RMK A01 T03390134  RH  029%=      5-min Rain = 0
KMD1 031734Z 19009KT 34/13 A3006 RMK A01 T03420131  RH  028%=      5-min Rain = 0
KMD1 031735Z 19005KT 34/12 A3006 RMK A01 T03390121  RH  027%=      5-min Rain = 0
KMD1 031736Z 21006KT 34/13 A3006 RMK A01 T03370126  RH  028%=      5-min Rain = 0
KMD1 031737Z 21004KT 34/12 A3006 RMK A01 T03370121  RH  027%=      5-min Rain = 0
KMD1 031738Z 21004KT 34/13 A3006 RMK A01 T03360130  RH  029%=      5-min Rain = 0
KMD1 031739Z 21005KT 34/13 A3006 RMK A01 T03370126  RH  028%=      5-min Rain = 0
KMD1 031740Z 22008KT 34/13 A3006 RMK A01 T03380131  RH  029%=      5-min Rain = 0
KMD1 031741Z 19007KT 34/13 A3006 RMK A01 T03400130  RH  028%=      5-min Rain = 0
KMD1 031742Z 17007KT 34/13 A3006 RMK A01 T03420126  RH  027%=      5-min Rain = 0
KMD1 031743Z 17008KT 34/12 A3006 RMK A01 T03420120  RH  026%=      5-min Rain = 0
KMD1 031744Z 20007KT 34/12 A3006 RMK A01 T03420123  RH  027%=      5-min Rain = 0
KMD1 031745Z 17009KT 34/12 A3006 RMK A01 T03420124  RH  027%=      5-min Rain = 0
KMD1 031746Z 16009KT 34/13 A3006 RMK A01 T03430125  RH  027%=      5-min Rain = 0
KMD1 031747Z 15009KT 35/13 A3006 RMK A01 T03460127  RH  027%=      5-min Rain = 0
KMD1 031748Z 13007KT 35/13 A3006 RMK A01 T03460125  RH  026%=      5-min Rain = 0
KMD1 031749Z 13007KT 34/12 A3006 RMK A01 T03430120  RH  026%=      5-min Rain = 0
KMD1 031750Z 14006KT 34/12 A3006 RMK A01 T03410120  RH  026%=      5-min Rain = 0
KMD1 031751Z 17009KT 34/12 A3006 RMK A01 T03430119  RH  026%=      5-min Rain = 0
KMD1 031752Z 18010KT 35/11 A3006 RMK A01 T03450110  RH  024%=      5-min Rain = 0
KMD1 031753Z 17008KT 34/11 A3006 RMK A01 T03440110  RH  024%=      5-min Rain = 0
KMD1 031754Z 17008KT 35/11 A3006 RMK A01 T03470106  RH  023%=      5-min Rain = 0
KMD1 031755Z 19006KT 35/11 A3006 RMK A01 T03480109  RH  023%=      5-min Rain = 0
KMD1 031756Z 19008KT 35/11 A3006 RMK A01 T03460111  RH  024%=      5-min Rain = 0
KMD1 031757Z 18009KT 35/12 A3006 RMK A01 T03450116  RH  025%=      5-min Rain = 0
KMD1 031758Z 19008KT 35/11 A3006 RMK A01 T03470109  RH  024%=      5-min Rain = 0
KMD1 031759Z 17005KT 35/11 A3006 RMK A01 T03450110  RH  024%=      5-min Rain = 0
KMD1 031800Z 16004KT 34/11 A3006 RMK A01 T03420109  RH  024%=      5-min Rain = 0
KMD1 031801Z 19008KT 34/11 A3006 RMK A01 T03420113  RH  025%=      5-min Rain = 0
KMD1 031802Z 19011KT 34/11 A3005 RMK A01 T03440111  RH  024%=      5-min Rain = 0
KMD1 031803Z 20006KT 34/12 A3005 RMK A01 T03420116  RH  025%=      5-min Rain = 0
KMD1 031804Z 21005KT 34/11 A3005 RMK A01 T03420113  RH  025%=      5-min Rain = 0
KMD1 031805Z 16008KT 34/12 A3005 RMK A01 T03420123  RH  026%=      5-min Rain = 0
KMD1 031806Z 14004KT 34/12 A3005 RMK A01 T03440118  RH  025%=      5-min Rain = 0
KMD1 031807Z 19004KT 34/12 A3005 RMK A01 T03420118  RH  026%=      5-min Rain = 0
KMD1 031808Z 18004KT 34/12 A3005 RMK A01 T03420122  RH  026%=      5-min Rain = 0
KMD1 031809Z 14004KT 35/12 A3005 RMK A01 T03450122  RH  026%=      5-min Rain = 0
KMD1 031810Z 15007KT 35/12 A3005 RMK A01 T03480116  RH  025%=      5-min Rain = 0
KMD1 031811Z 17009KT 35/11 A3005 RMK A01 T03510110  RH  023%=      5-min Rain = 0
KMD1 031812Z 16010KT 35/11 A3005 RMK A01 T03520114  RH  024%=      5-min Rain = 0
KMD1 031813Z 15008KT 35/11 A3005 RMK A01 T03520109  RH  023%=      5-min Rain = 0
KMD1 031814Z 15009KT 35/11 A3005 RMK A01 T03530113  RH  023%=      5-min Rain = 0
KMD1 031815Z 15009KT 35/12 A3005 RMK A01 T03540117  RH  024%=      5-min Rain = 0
KMD1 031816Z 16011KT 36/11 A3005 RMK A01 T03580113  RH  023%=      5-min Rain = 0
KMD1 031817Z 17008KT 36/11 A3005 RMK A01 T03560108  RH  022%=      5-min Rain = 0
KMD1 031818Z 16007KT 35/11 A3005 RMK A01 T03520107  RH  023%=      5-min Rain = 0
KMD1 031819Z 16009KT 35/11 A3005 RMK A01 T03510112  RH  024%=      5-min Rain = 0
KMD1 031820Z 15007KT 35/11 A3005 RMK A01 T03520108  RH  023%=      5-min Rain = 0
KMD1 031821Z 14005KT 35/11 A3005 RMK A01 T03520113  RH  023%=      5-min Rain = 0
KMD1 031822Z 15007KT 35/11 A3005 RMK A01 T03530113  RH  023%=      5-min Rain = 0
KMD1 031823Z 15007KT 35/11 A3005 RMK A01 T03530114  RH  023%=      5-min Rain = 0
KMD1 031824Z 15007KT 35/11 A3005 RMK A01 T03520111  RH  023%=      5-min Rain = 0
KMD1 031825Z 16007KT 35/11 A3005 RMK A01 T03520112  RH  023%=      5-min Rain = 0
KMD1 031826Z 16009KT 35/11 A3005 RMK A01 T03510112  RH  024%=      5-min Rain = 0
KMD1 031827Z 14006KT 35/11 A3005 RMK A01 T03490112  RH  024%=      5-min Rain = 0
KMD1 031828Z 14006KT 35/11 A3005 RMK A01 T03490114  RH  024%=      5-min Rain = 0
KMD1 031829Z 15006KT 35/11 A3005 RMK A01 T03510114  RH  024%=      5-min Rain = 0
KMD1 031830Z 15003KT 35/11 A3005 RMK A01 T03510113  RH  024%=      5-min Rain = 0
KMD1 031831Z 21003KT 35/12 A3005 RMK A01 T03500119  RH  025%=      5-min Rain = 0
KMD1 031832Z 18004KT 35/12 A3005 RMK A01 T03520120  RH  025%=      5-min Rain = 0
KMD1 031833Z 17009G15KT 35/12 A3004 RMK A01 T03540124  RH  025%=      5-min Rain = 0
KMD1 031834Z 17008KT 35/12 A3004 RMK A01 T03540115  RH  024%=      5-min Rain = 0
KMD1 031835Z 18010KT 35/12 A3004 RMK A01 T03540116  RH  024%=      5-min Rain = 0
KMD1 031836Z 19008KT 35/11 A3004 RMK A01 T03530111  RH  023%=      5-min Rain = 0
KMD1 031837Z 21009KT 35/12 A3004 RMK A01 T03530117  RH  024%=      5-min Rain = 0
KMD1 031838Z 22007KT 35/12 A3005 RMK A01 T03540118  RH  024%=      5-min Rain = 0
KMD1 031839Z 25004KT 35/12 A3004 RMK A01 T03500118  RH  025%=      5-min Rain = 0
KMD1 031840Z 22004KT 35/12 A3004 RMK A01 T03500118  RH  024%=      5-min Rain = 0
KMD1 031841Z 19007KT 35/11 A3004 RMK A01 T03510112  RH  023%=      5-min Rain = 0
KMD1 031842Z 21007KT 35/11 A3004 RMK A01 T03510108  RH  023%=      5-min Rain = 0
KMD1 031843Z 19005KT 35/10 A3004 RMK A01 T03490103  RH  022%=      5-min Rain = 0
KMD1 031844Z 07001KT 35/11 A3004 RMK A01 T03470105  RH  023%=      5-min Rain = 0
KMD1 031845Z 23007KT 35/11 A3004 RMK A01 T03460109  RH  024%=      5-min Rain = 0
KMD1 031846Z 22008KT 35/12 A3004 RMK A01 T03480115  RH  024%=      5-min Rain = 0
KMD1 031847Z 21008KT 35/11 A3004 RMK A01 T03510114  RH  024%=      5-min Rain = 0
KMD1 031848Z 21004KT 35/11 A3004 RMK A01 T03510112  RH  023%=      5-min Rain = 0
KMD1 031849Z 21003KT 35/12 A3004 RMK A01 T03500118  RH  025%=      5-min Rain = 0
KMD1 031850Z 24006KT 35/12 A3004 RMK A01 T03540119  RH  024%=      5-min Rain = 0
KMD1 031851Z 21006KT 35/12 A3004 RMK A01 T03540118  RH  024%=      5-min Rain = 0
KMD1 031852Z 20009KT 36/13 A3004 RMK A01 T03550125  RH  025%=      5-min Rain = 0
KMD1 031853Z 20007KT 36/11 A3004 RMK A01 T03560111  RH  023%=      5-min Rain = 0
KMD1 031854Z 20006KT 35/11 A3004 RMK A01 T03540107  RH  022%=      5-min Rain = 0
KMD1 031855Z 21006KT 35/11 A3004 RMK A01 T03520109  RH  023%=      5-min Rain = 0
KMD1 031856Z 22008KT 35/12 A3004 RMK A01 T03530117  RH  024%=      5-min Rain = 0
KMD1 031857Z 21006KT 35/12 A3004 RMK A01 T03530117  RH  024%=      5-min Rain = 0
KMD1 031858Z 22005KT 35/12 A3004 RMK A01 T03530118  RH  024%=      5-min Rain = 0
KMD1 031859Z 23009KT 35/11 A3004 RMK A01 T03540110  RH  023%=      5-min Rain = 0
KMD1 031900Z 23009KT 35/11 A3004 RMK A01 T03530114  RH  023%=      5-min Rain = 0
KMD1 031901Z 21007KT 35/11 A3004 RMK A01 T03540112  RH  023%=      5-min Rain = 0
KMD1 031902Z 20006KT 36/11 A3004 RMK A01 T03560110  RH  023%=      5-min Rain = 0
KMD1 031903Z 20006KT 36/11 A3003 RMK A01 T03550112  RH  023%=      5-min Rain = 0
KMD1 031904Z 20007KT 36/12 A3003 RMK A01 T03550115  RH  023%=      5-min Rain = 0
KMD1 031905Z 21008KT 36/12 A3003 RMK A01 T03560120  RH  024%=      5-min Rain = 0
KMD1 031906Z 21008KT 36/13 A3003 RMK A01 T03600126  RH  025%=      5-min Rain = 0
KMD1 031907Z 22008KT 36/12 A3003 RMK A01 T03590124  RH  024%=      5-min Rain = 0
KMD1 031908Z 21008KT 36/13 A3003 RMK A01 T03570128  RH  025%=      5-min Rain = 0
KMD1 031909Z 21007KT 36/12 A3003 RMK A01 T03560124  RH  025%=      5-min Rain = 0
KMD1 031910Z 26004KT 35/12 A3003 RMK A01 T03540117  RH  024%=      5-min Rain = 0
KMD1 031911Z 24007KT 35/11 A3003 RMK A01 T03540113  RH  023%=      5-min Rain = 0
KMD1 031912Z 20007G13KT 36/11 A3003 RMK A01 T03550113  RH  023%=      5-min Rain = 0
KMD1 031913Z 20011KT 36/10 A3003 RMK A01 T03580102  RH  021%=      5-min Rain = 0
KMD1 031914Z 20009KT 36/10 A3003 RMK A01 T03590104  RH  021%=      5-min Rain = 0
KMD1 031915Z 20009KT 36/10 A3003 RMK A01 T03590098  RH  021%=      5-min Rain = 0
KMD1 031916Z 20008KT 36/10 A3003 RMK A01 T03590103  RH  021%=      5-min Rain = 0
KMD1 031917Z 19010KT 36/11 A3003 RMK A01 T03600109  RH  022%=      5-min Rain = 0
KMD1 031918Z 19008KT 36/11 A3003 RMK A01 T03600111  RH  022%=      5-min Rain = 0
KMD1 031919Z 21005KT 36/11 A3003 RMK A01 T03560107  RH  022%=      5-min Rain = 0
KMD1 031920Z 22005KT 36/11 A3003 RMK A01 T03550110  RH  023%=      5-min Rain = 0
KMD1 031921Z 20008KT 36/11 A3003 RMK A01 T03560114  RH  023%=      5-min Rain = 0
KMD1 031922Z 20009G14KT 36/11 A3003 RMK A01 T03570112  RH  023%=      5-min Rain = 0
KMD1 031923Z 20010KT 36/12 A3003 RMK A01 T03570115  RH  023%=      5-min Rain = 0
KMD1 031924Z 18005KT 36/11 A3003 RMK A01 T03570112  RH  023%=      5-min Rain = 0
KMD1 031925Z 20005G10KT 36/11 A3003 RMK A01 T03570111  RH  023%=      5-min Rain = 0
KMD1 031926Z 20005KT 36/12 A3003 RMK A01 T03570115  RH  023%=      5-min Rain = 0
KMD1 031927Z 19004KT 36/12 A3003 RMK A01 T03570115  RH  023%=      5-min Rain = 0
KMD1 031928Z 18003KT 36/11 A3002 RMK A01 T03590109  RH  022%=      5-min Rain = 0
KMD1 031929Z 20004KT 36/11 A3002 RMK A01 T03590112  RH  022%=      5-min Rain = 0
KMD1 031930Z 22008KT 36/12 A3002 RMK A01 T03610116  RH  023%=      5-min Rain = 0
KMD1 031931Z 23009KT 36/10 A3002 RMK A01 T03620103  RH  021%=      5-min Rain = 0
KMD1 031932Z 22005KT 36/11 A3002 RMK A01 T03610112  RH  022%=      5-min Rain = 0
KMD1 031933Z 21010KT 37/11 A3002 RMK A01 T03650113  RH  022%=      5-min Rain = 0
KMD1 031934Z 19010KT 37/10 A3002 RMK A01 T03660104  RH  020%=      5-min Rain = 0
KMD1 031935Z 21008KT 36/10 A3002 RMK A01 T03640100  RH  020%=      5-min Rain = 0
KMD1 031936Z 19012KT 36/10 A3002 RMK A01 T03640099  RH  020%=      5-min Rain = 0
KMD1 031937Z 21011KT 36/10 A3002 RMK A01 T03640102  RH  020%=      5-min Rain = 0
KMD1 031938Z 19010KT 37/10 A3002 RMK A01 T03650102  RH  020%=      5-min Rain = 0
KMD1 031939Z 19009KT 37/10 A3002 RMK A01 T03660096  RH  019%=      5-min Rain = 0
KMD1 031940Z 20009KT 37/10 A3002 RMK A01 T03650102  RH  020%=      5-min Rain = 0
KMD1 031941Z 21010KT 36/11 A3002 RMK A01 T03640107  RH  021%=      5-min Rain = 0
KMD1 031942Z 21010KT 36/10 A3002 RMK A01 T03640095  RH  020%=      5-min Rain = 0
KMD1 031943Z 21010KT 36/10 A3002 RMK A01 T03630096  RH  020%=      5-min Rain = 0
KMD1 031944Z 21008KT 36/09 A3002 RMK A01 T03640094  RH  019%=      5-min Rain = 0
KMD1 031945Z 20007KT 36/10 A3002 RMK A01 T03630101  RH  020%=      5-min Rain = 0
KMD1 031946Z 21008G13KT 36/10 A3002 RMK A01 T03630102  RH  020%=      5-min Rain = 0
KMD1 031947Z 22008KT 36/10 A3002 RMK A01 T03630097  RH  020%=      5-min Rain = 0
KMD1 031948Z 24004KT 36/10 A3001 RMK A01 T03610100  RH  021%=      5-min Rain = 0
KMD1 031949Z 17003KT 36/10 A3001 RMK A01 T03610104  RH  021%=      5-min Rain = 0
KMD1 031950Z 18006G11KT 37/10 A3001 RMK A01 T03650104  RH  021%=      5-min Rain = 0
KMD1 031951Z 17008KT 37/11 A3001 RMK A01 T03670105  RH  021%=      5-min Rain = 0
KMD1 031952Z 21006KT 37/11 A3001 RMK A01 T03650105  RH  021%=      5-min Rain = 0
KMD1 031953Z 21003KT 36/11 A3001 RMK A01 T03630113  RH  022%=      5-min Rain = 0
KMD1 031954Z 19007KT 37/12 A3001 RMK A01 T03650119  RH  023%=      5-min Rain = 0
KMD1 031955Z 19006KT 37/11 A3001 RMK A01 T03690108  RH  021%=      5-min Rain = 0
KMD1 031956Z 18010KT 37/11 A3001 RMK A01 T03690107  RH  021%=      5-min Rain = 0
KMD1 031957Z 19012KT 37/10 A3001 RMK A01 T03710100  RH  019%=      5-min Rain = 0
KMD1 031958Z 19009KT 37/10 A3001 RMK A01 T03710101  RH  020%=      5-min Rain = 0
KMD1 031959Z 19007KT 37/10 A3001 RMK A01 T03710103  RH  020%=      5-min Rain = 0
KMD1 032000Z 18008KT 37/10 A3001 RMK A01 T03710101  RH  020%=      5-min Rain = 0
KMD1 032001Z 22009KT 37/11 A3001 RMK A01 T03690110  RH  021%=      5-min Rain = 0
KMD1 032002Z 22013KT 37/11 A3001 RMK A01 T03690110  RH  021%=      5-min Rain = 0
KMD1 032003Z 21010KT 37/10 A3001 RMK A01 T03670104  RH  020%=      5-min Rain = 0
KMD1 032004Z 22008KT 37/11 A3001 RMK A01 T03650107  RH  021%=      5-min Rain = 0
KMD1 032005Z 22010KT 37/11 A3001 RMK A01 T03680110  RH  021%=      5-min Rain = 0
KMD1 032006Z 21008KT 37/10 A3001 RMK A01 T03690101  RH  020%=      5-min Rain = 0
KMD1 032007Z 23007KT 37/10 A3001 RMK A01 T03680101  RH  020%=      5-min Rain = 0
KMD1 032008Z 23005KT 37/10 A3001 RMK A01 T03670099  RH  020%=      5-min Rain = 0
KMD1 032009Z 23003KT 37/09 A3001 RMK A01 T03670093  RH  019%=      5-min Rain = 0
KMD1 032010Z 21005KT 37/10 A3001 RMK A01 T03660102  RH  020%=      5-min Rain = 0
KMD1 032011Z 21007KT 37/10 A3001 RMK A01 T03680104  RH  020%=      5-min Rain = 0
KMD1 032012Z 18003KT 37/10 A3001 RMK A01 T03670095  RH  019%=      5-min Rain = 0
KMD1 032013Z 14004KT 37/10 A30 RMK A01 T03660097  RH  020%=      5-min Rain = 0
KMD1 032014Z 21003KT 37/10 A30 RMK A01 T03650099  RH  020%=      5-min Rain = 0
KMD1 032015Z 22007G12KT 37/10 A30 RMK A01 T03660099  RH  020%=      5-min Rain = 0
KMD1 032016Z 22010KT 37/11 A30 RMK A01 T03670111  RH  021%=      5-min Rain = 0
KMD1 032017Z 22007KT 37/12 A30 RMK A01 T03730118  RH  022%=      5-min Rain = 0
KMD1 032018Z 22007KT 38/11 A30 RMK A01 T03750110  RH  020%=      5-min Rain = 0
KMD1 032019Z 24004KT 37/10 A30 RMK A01 T03710103  RH  020%=      5-min Rain = 0
KMD1 032020Z 22005KT 37/11 A30 RMK A01 T03680105  RH  020%=      5-min Rain = 0
KMD1 032021Z 21005KT 37/11 A30 RMK A01 T03670110  RH  021%=      5-min Rain = 0
KMD1 032022Z 23005KT 37/11 A30 RMK A01 T03680106  RH  021%=      5-min Rain = 0
KMD1 032023Z 20006KT 37/11 A30 RMK A01 T03660110  RH  021%=      5-min Rain = 0
KMD1 032024Z 21005KT 37/11 A30 RMK A01 T03650112  RH  022%=      5-min Rain = 0
KMD1 032025Z 19007KT 37/11 A30 RMK A01 T03670113  RH  022%=      5-min Rain = 0
KMD1 032026Z 20008KT 37/11 A30 RMK A01 T03710111  RH  021%=      5-min Rain = 0
KMD1 032027Z 16008KT 37/11 A30 RMK A01 T03720108  RH  020%=      5-min Rain = 0
KMD1 032028Z 16009KT 37/11 A30 RMK A01 T03720108  RH  020%=      5-min Rain = 0
KMD1 032029Z 20009KT 37/11 A30 RMK A01 T03730107  RH  020%=      5-min Rain = 0
KMD1 032030Z 19008KT 37/11 A30 RMK A01 T03720105  RH  020%=      5-min Rain = 0
KMD1 032031Z 18005KT 37/10 A30 RMK A01 T03710102  RH  020%=      5-min Rain = 0
KMD1 032032Z 15006KT 37/10 A30 RMK A01 T03700104  RH  020%=      5-min Rain = 0
KMD1 032033Z 15006KT 37/10 A30 RMK A01 T03700103  RH  020%=      5-min Rain = 0
KMD1 032034Z 17007KT 37/11 A30 RMK A01 T03700106  RH  020%=      5-min Rain = 0
KMD1 032035Z 20007KT 37/11 A30 RMK A01 T03690112  RH  021%=      5-min Rain = 0
KMD1 032036Z 21009KT 37/12 A2999 RMK A01 T03720117  RH  022%=      5-min Rain = 0
KMD1 032037Z 22011G17KT 37/11 A2999 RMK A01 T03710110  RH  021%=      5-min Rain = 0
KMD1 032038Z 21009KT 37/11 A2999 RMK A01 T03670107  RH  021%=      5-min Rain = 0
KMD1 032039Z 20007KT 37/11 A2999 RMK A01 T03660114  RH  022%=      5-min Rain = 0
KMD1 032040Z 21009KT 37/12 A30 RMK A01 T03700120  RH  022%=      5-min Rain = 0
KMD1 032041Z 21008KT 37/11 A30 RMK A01 T03730108  RH  020%=      5-min Rain = 0
KMD1 032042Z 23008KT 37/11 A2999 RMK A01 T03720109  RH  021%=      5-min Rain = 0
KMD1 032043Z 24007KT 37/11 A2999 RMK A01 T03700113  RH  021%=      5-min Rain = 0
KMD1 032044Z 24007KT 37/11 A2999 RMK A01 T03710109  RH  021%=      5-min Rain = 0
KMD1 032045Z 24006KT 37/10 A2999 RMK A01 T03730104  RH  020%=      5-min Rain = 0
KMD1 032046Z 25005KT 37/10 A2999 RMK A01 T03720101  RH  019%=      5-min Rain = 0
KMD1 032047Z 25004KT 37/11 A2999 RMK A01 T03710105  RH  020%=      5-min Rain = 0
KMD1 032048Z 15004G9KT 37/10 A2999 RMK A01 T03720104  RH  020%=      5-min Rain = 0
KMD1 032049Z 12009KT 37/10 A2999 RMK A01 T03730102  RH  019%=      5-min Rain = 0
KMD1 032050Z 13009KT 37/10 A2999 RMK A01 T03740102  RH  019%=      5-min Rain = 0
KMD1 032051Z 14007KT 37/10 A2999 RMK A01 T03730099  RH  019%=      5-min Rain = 0
KMD1 032052Z 16008KT 37/10 A2999 RMK A01 T03690100  RH  020%=      5-min Rain = 0
KMD1 032053Z 15011KT 37/11 A2999 RMK A01 T03700106  RH  020%=      5-min Rain = 0
KMD1 032054Z 14010KT 37/11 A2999 RMK A01 T03720105  RH  020%=      5-min Rain = 0
KMD1 032055Z 14007KT 37/10 A2999 RMK A01 T03720104  RH  020%=      5-min Rain = 0
KMD1 032056Z 14006KT 37/11 A2999 RMK A01 T03720106  RH  020%=      5-min Rain = 0
KMD1 032057Z 14009KT 37/11 A2999 RMK A01 T03720107  RH  020%=      5-min Rain = 0
KMD1 032058Z 15008KT 38/11 A2999 RMK A01 T03750107  RH  020%=      5-min Rain = 0
KMD1 032059Z 17007KT 38/11 A2999 RMK A01 T03750106  RH  020%=      5-min Rain = 0
KMD1 032100Z 18004KT 37/11 A2999 RMK A01 T03740107  RH  020%=      5-min Rain = 0
KMD1 032101Z 20009KT 38/11 A2998 RMK A01 T03750112  RH  021%=      5-min Rain = 0
KMD1 032102Z 20009KT 38/10 A2998 RMK A01 T03750100  RH  019%=      5-min Rain = 0
KMD1 032103Z 22007KT 37/10 A2998 RMK A01 T03740103  RH  019%=      5-min Rain = 0
KMD1 032104Z 23006KT 37/10 A2998 RMK A01 T03740096  RH  019%=      5-min Rain = 0
KMD1 032105Z 23007G12KT 37/10 A2998 RMK A01 T03730104  RH  020%=      5-min Rain = 0
KMD1 032106Z 21009G15KT 38/11 A2998 RMK A01 T03750109  RH  020%=      5-min Rain = 0
KMD1 032107Z 21009G15KT 38/11 A2998 RMK A01 T03760113  RH  021%=      5-min Rain = 0
KMD1 032108Z 21008KT 38/11 A2998 RMK A01 T03770112  RH  020%=      5-min Rain = 0
KMD1 032109Z 22009KT 38/11 A2998 RMK A01 T03760111  RH  020%=      5-min Rain = 0
KMD1 032110Z 21008G13KT 38/11 A2998 RMK A01 T03750114  RH  021%=      5-min Rain = 0
KMD1 032111Z 19011KT 38/11 A2998 RMK A01 T03760110  RH  020%=      5-min Rain = 0
KMD1 032112Z 20007KT 38/11 A2998 RMK A01 T03770106  RH  020%=      5-min Rain = 0
KMD1 032113Z 22003KT 37/10 A2998 RMK A01 T03740104  RH  020%=      5-min Rain = 0
KMD1 032114Z 17002KT 37/11 A2998 RMK A01 T03740105  RH  020%=      5-min Rain = 0
KMD1 032115Z 14003KT 38/10 A2998 RMK A01 T03760103  RH  019%=      5-min Rain = 0
KMD1 032116Z 23006KT 38/10 A2998 RMK A01 T03770103  RH  019%=      5-min Rain = 0
KMD1 032117Z 21008KT 38/11 A2998 RMK A01 T03760109  RH  020%=      5-min Rain = 0
KMD1 032118Z 23008KT 37/10 A2998 RMK A01 T03740103  RH  020%=      5-min Rain = 0
KMD1 032119Z 22007KT 37/10 A2998 RMK A01 T03730100  RH  019%=      5-min Rain = 0
KMD1 032120Z 22009KT 37/10 A2998 RMK A01 T03730102  RH  019%=      5-min Rain = 0
KMD1 032121Z 21008KT 38/10 A2998 RMK A01 T03760104  RH  019%=      5-min Rain = 0
KMD1 032122Z 20007KT 38/10 A2998 RMK A01 T03770097  RH  018%=      5-min Rain = 0
KMD1 032123Z 17009KT 38/10 A2998 RMK A01 T03760101  RH  019%=      5-min Rain = 0
KMD1 032124Z 16011KT 38/10 A2997 RMK A01 T03770100  RH  019%=      5-min Rain = 0
KMD1 032125Z 14008G13KT 38/10 A2997 RMK A01 T03770095  RH  018%=      5-min Rain = 0
KMD1 032126Z 16008KT 38/10 A2997 RMK A01 T03770098  RH  018%=      5-min Rain = 0
KMD1 032127Z 20006KT 38/10 A2997 RMK A01 T03780101  RH  019%=      5-min Rain = 0
KMD1 032128Z 21007KT 38/11 A2997 RMK A01 T03770107  RH  020%=      5-min Rain = 0
KMD1 032129Z 21007KT 38/10 A2997 RMK A01 T03780104  RH  019%=      5-min Rain = 0
KMD1 032130Z 21007KT 38/10 A2997 RMK A01 T03800101  RH  019%=      5-min Rain = 0
KMD1 032131Z 21007KT 38/10 A2997 RMK A01 T03810096  RH  018%=      5-min Rain = 0
KMD1 032132Z 21006KT 38/10 A2997 RMK A01 T03790100  RH  019%=      5-min Rain = 0
KMD1 032133Z 20007KT 38/11 A2997 RMK A01 T03770107  RH  020%=      5-min Rain = 0
KMD1 032134Z 19010KT 38/10 A2997 RMK A01 T03790099  RH  018%=      5-min Rain = 0
KMD1 032135Z 18008KT 38/09 A2997 RMK A01 T03770093  RH  018%=      5-min Rain = 0
KMD1 032136Z 18010KT 38/09 A2997 RMK A01 T03760094  RH  018%=      5-min Rain = 0
KMD1 032137Z 18009KT 38/08 A2997 RMK A01 T03760082  RH  017%=      5-min Rain = 0
KMD1 032138Z 18006KT 38/08 A2997 RMK A01 T03750083  RH  017%=      5-min Rain = 0
KMD1 032139Z 21007KT 38/08 A2997 RMK A01 T03760084  RH  017%=      5-min Rain = 0
KMD1 032140Z 20009KT 38/10 A2997 RMK A01 T03770096  RH  018%=      5-min Rain = 0
KMD1 032141Z 22009KT 38/10 A2997 RMK A01 T03770098  RH  019%=      5-min Rain = 0
KMD1 032142Z 23008KT 38/10 A2997 RMK A01 T03760097  RH  019%=      5-min Rain = 0
KMD1 032143Z 22010KT 38/10 A2997 RMK A01 T03760102  RH  019%=      5-min Rain = 0
KMD1 032144Z 21008KT 38/10 A2997 RMK A01 T03760100  RH  019%=      5-min Rain = 0
KMD1 032145Z 20008KT 38/11 A2997 RMK A01 T03750111  RH  020%=      5-min Rain = 0
KMD1 032146Z 22006KT 38/11 A2997 RMK A01 T03770111  RH  020%=      5-min Rain = 0
KMD1 032147Z 21009KT 38/11 A2997 RMK A01 T03780105  RH  019%=      5-min Rain = 0
KMD1 032148Z 19007KT 38/11 A2997 RMK A01 T03770110  RH  020%=      5-min Rain = 0
KMD1 032149Z 19009KT 38/10 A2997 RMK A01 T03780104  RH  019%=      5-min Rain = 0
KMD1 032150Z 18005KT 38/10 A2997 RMK A01 T03750098  RH  019%=      5-min Rain = 0
KMD1 032151Z 20008KT 37/10 A2996 RMK A01 T03730104  RH  020%=      5-min Rain = 0
KMD1 032152Z 21008KT 38/11 A2996 RMK A01 T03760108  RH  020%=      5-min Rain = 0
KMD1 032153Z 22008KT 38/11 A2996 RMK A01 T03770105  RH  019%=      5-min Rain = 0
KMD1 032154Z 23009KT 38/11 A2996 RMK A01 T03770107  RH  020%=      5-min Rain = 0
KMD1 032155Z 23009KT 38/10 A2996 RMK A01 T03770104  RH  019%=      5-min Rain = 0
KMD1 032156Z 23007KT 38/10 A2996 RMK A01 T03770104  RH  019%=      5-min Rain = 0
KMD1 032157Z 22008KT 38/11 A2996 RMK A01 T03760105  RH  020%=      5-min Rain = 0
KMD1 032158Z 21012KT 38/11 A2996 RMK A01 T03750109  RH  020%=      5-min Rain = 0
KMD1 032159Z 21009KT 37/10 A2996 RMK A01 T03730102  RH  019%=      5-min Rain = 0
KMD1 032200Z 20010KT 37/10 A2996 RMK A01 T03730103  RH  020%=      5-min Rain = 0
KMD1 032201Z 19007KT 37/10 A2996 RMK A01 T03730099  RH  019%=      5-min Rain = 0
KMD1 032202Z 21005KT 37/10 A2996 RMK A01 T03730098  RH  019%=      5-min Rain = 0
KMD1 032203Z 20008KT 37/10 A2996 RMK A01 T03720101  RH  019%=      5-min Rain = 0
KMD1 032204Z 22006KT 37/11 A2996 RMK A01 T03730112  RH  021%=      5-min Rain = 0
KMD1 032205Z 20005KT 38/10 A2996 RMK A01 T03770103  RH  019%=      5-min Rain = 0
KMD1 032206Z 22005KT 38/10 A2996 RMK A01 T03770101  RH  019%=      5-min Rain = 0
KMD1 032207Z 22004KT 38/10 A2996 RMK A01 T03760099  RH  019%=      5-min Rain = 0
KMD1 032208Z 24005KT 38/10 A2996 RMK A01 T03760098  RH  019%=      5-min Rain = 0
KMD1 032209Z 25008KT 38/10 A2996 RMK A01 T03750098  RH  019%=      5-min Rain = 0
KMD1 032210Z 24008KT 37/10 A2996 RMK A01 T03740103  RH  020%=      5-min Rain = 0
KMD1 032211Z 24007KT 38/10 A2996 RMK A01 T03750097  RH  019%=      5-min Rain = 0
KMD1 032212Z 22006KT 38/10 A2996 RMK A01 T03750099  RH  019%=      5-min Rain = 0
KMD1 032213Z 18004KT 38/10 A2996 RMK A01 T03760102  RH  019%=      5-min Rain = 0
KMD1 032214Z 14005KT 38/10 A2996 RMK A01 T03760101  RH  019%=      5-min Rain = 0
KMD1 032215Z 15009G14KT 38/10 A2996 RMK A01 T03770098  RH  019%=      5-min Rain = 0
KMD1 032216Z 18008G14KT 38/10 A2996 RMK A01 T03790101  RH  019%=      5-min Rain = 0
KMD1 032217Z 18009KT 38/10 A2996 RMK A01 T03810102  RH  019%=      5-min Rain = 0
KMD1 032218Z 19006KT 38/10 A2996 RMK A01 T03810098  RH  018%=      5-min Rain = 0
KMD1 032219Z 21004KT 38/10 A2996 RMK A01 T03800095  RH  018%=      5-min Rain = 0
KMD1 032220Z 20006KT 38/10 A2996 RMK A01 T03790096  RH  018%=      5-min Rain = 0
KMD1 032221Z 18007KT 38/10 A2995 RMK A01 T03800103  RH  019%=      5-min Rain = 0
KMD1 032222Z 19008KT 38/09 A2995 RMK A01 T03800091  RH  017%=      5-min Rain = 0
KMD1 032223Z 19006KT 38/09 A2995 RMK A01 T03770092  RH  018%=      5-min Rain = 0
KMD1 032224Z 20005KT 38/09 A2995 RMK A01 T03760094  RH  018%=      5-min Rain = 0
KMD1 032225Z 20008KT 38/10 A2995 RMK A01 T03770095  RH  018%=      5-min Rain = 0
KMD1 032226Z 20010KT 38/10 A2995 RMK A01 T03770096  RH  018%=      5-min Rain = 0
KMD1 032227Z 19010KT 38/09 A2995 RMK A01 T03760094  RH  018%=      5-min Rain = 0
KMD1 032228Z 19006KT 38/09 A2995 RMK A01 T03760087  RH  017%=      5-min Rain = 0
KMD1 032229Z 19006KT 37/09 A2995 RMK A01 T03740092  RH  018%=      5-min Rain = 0
KMD1 032230Z 19006KT 38/10 A2995 RMK A01 T03750099  RH  019%=      5-min Rain = 0
KMD1 032231Z 19006KT 38/10 A2995 RMK A01 T03770099  RH  019%=      5-min Rain = 0
KMD1 032232Z 18008KT 38/09 A2995 RMK A01 T03790092  RH  018%=      5-min Rain = 0
KMD1 032233Z 17007KT 38/09 A2995 RMK A01 T03790085  RH  017%=      5-min Rain = 0
KMD1 032234Z 19007KT 38/09 A2995 RMK A01 T03770091  RH  018%=      5-min Rain = 0
KMD1 032235Z 20010KT 38/09 A2995 RMK A01 T03770092  RH  018%=      5-min Rain = 0
KMD1 032236Z 22007KT 38/09 A2995 RMK A01 T03760091  RH  018%=      5-min Rain = 0
KMD1 032237Z 21010KT 38/09 A2995 RMK A01 T03750087  RH  017%=      5-min Rain = 0
KMD1 032238Z 22008KT 38/09 A2995 RMK A01 T03750093  RH  018%=      5-min Rain = 0
KMD1 032239Z 20008KT 38/10 A2995 RMK A01 T03750098  RH  019%=      5-min Rain = 0
KMD1 032240Z 22006KT 38/10 A2995 RMK A01 T03750096  RH  018%=      5-min Rain = 0
KMD1 032241Z 25005KT 38/10 A2995 RMK A01 T03750095  RH  018%=      5-min Rain = 0
KMD1 032242Z 22006KT 38/10 A2995 RMK A01 T03760096  RH  018%=      5-min Rain = 0
KMD1 032243Z 18006KT 38/10 A2995 RMK A01 T03770096  RH  018%=      5-min Rain = 0
KMD1 032244Z 18006KT 38/09 A2995 RMK A01 T03760091  RH  018%=      5-min Rain = 0
KMD1 032245Z 20006KT 38/10 A2995 RMK A01 T03750095  RH  018%=      5-min Rain = 0
KMD1 032246Z 20005KT 38/10 A2995 RMK A01 T03760095  RH  018%=      5-min Rain = 0
KMD1 032247Z 18007KT 38/10 A2995 RMK A01 T03760095  RH  018%=      5-min Rain = 0
KMD1 032248Z 18006KT 38/09 A2995 RMK A01 T03760088  RH  017%=      5-min Rain = 0
KMD1 032249Z 22006KT 38/10 A2995 RMK A01 T03760095  RH  018%=      5-min Rain = 0
KMD1 032250Z 22007KT 38/10 A2995 RMK A01 T03760102  RH  019%=      5-min Rain = 0
KMD1 032251Z 21008KT 38/10 A2995 RMK A01 T03770100  RH  019%=      5-min Rain = 0
KMD1 032252Z 20010KT 38/10 A2995 RMK A01 T03770099  RH  019%=      5-min Rain = 0
KMD1 032253Z 20008KT 38/10 A2995 RMK A01 T03760100  RH  019%=      5-min Rain = 0
KMD1 032254Z 22010KT 38/10 A2995 RMK A01 T03760102  RH  019%=      5-min Rain = 0
KMD1 032255Z 21007KT 38/09 A2995 RMK A01 T03750093  RH  018%=      5-min Rain = 0
KMD1 032256Z 20009KT 37/10 A2995 RMK A01 T03730100  RH  019%=      5-min Rain = 0
KMD1 032257Z 20008KT 37/10 A2995 RMK A01 T03720101  RH  020%=      5-min Rain = 0
KMD1 032258Z 21010KT 37/10 A2995 RMK A01 T03720095  RH  019%=      5-min Rain = 0
KMD1 032259Z 23005G10KT 37/09 A2995 RMK A01 T03710092  RH  018%=      5-min Rain = 0
KMD1 032300Z 20004KT 37/09 A2995 RMK A01 T03710089  RH  018%=      5-min Rain = 0
KMD1 032301Z 21005KT 37/10 A2995 RMK A01 T03710100  RH  019%=      5-min Rain = 0
KMD1 032302Z 18006KT 37/11 A2995 RMK A01 T03740105  RH  020%=      5-min Rain = 0
KMD1 032303Z 15010KT 38/09 A2995 RMK A01 T03770093  RH  018%=      5-min Rain = 0
KMD1 032304Z 16010KT 38/09 A2995 RMK A01 T03780087  RH  017%=      5-min Rain = 0
KMD1 032305Z 16012KT 38/09 A2995 RMK A01 T03780087  RH  017%=      5-min Rain = 0
KMD1 032306Z 15007KT 38/09 A2995 RMK A01 T03770085  RH  017%=      5-min Rain = 0
KMD1 032307Z 15009KT 38/09 A2995 RMK A01 T03760085  RH  017%=      5-min Rain = 0
KMD1 032308Z 15008KT 38/09 A2995 RMK A01 T03750086  RH  017%=      5-min Rain = 0
KMD1 032309Z 16010KT 38/09 A2995 RMK A01 T03770089  RH  018%=      5-min Rain = 0
KMD1 032310Z 16013KT 38/09 A2995 RMK A01 T03780085  RH  017%=      5-min Rain = 0
KMD1 032311Z 16010KT 38/08 A2995 RMK A01 T03780084  RH  017%=      5-min Rain = 0
KMD1 032312Z 16009KT 38/09 A2995 RMK A01 T03770085  RH  017%=      5-min Rain = 0
KMD1 032313Z 16008KT 38/08 A2995 RMK A01 T03760084  RH  017%=      5-min Rain = 0
KMD1 032314Z 15006KT 37/09 A2995 RMK A01 T03740085  RH  017%=      5-min Rain = 0
KMD1 032315Z 16005KT 38/09 A2994 RMK A01 T03750086  RH  017%=      5-min Rain = 0
KMD1 032316Z 17004KT 38/09 A2994 RMK A01 T03750086  RH  017%=      5-min Rain = 0
KMD1 032317Z 16006KT 38/09 A2994 RMK A01 T03760086  RH  017%=      5-min Rain = 0
KMD1 032318Z 16004KT 38/08 A2994 RMK A01 T03750084  RH  017%=      5-min Rain = 0
KMD1 032319Z 20006KT 38/09 A2994 RMK A01 T03750090  RH  018%=      5-min Rain = 0
KMD1 032320Z 19009KT 38/09 A2995 RMK A01 T03760089  RH  018%=      5-min Rain = 0
KMD1 032321Z 17006KT 38/09 A2995 RMK A01 T03760088  RH  017%=      5-min Rain = 0
KMD1 032322Z 18004KT 37/08 A2995 RMK A01 T03740083  RH  017%=      5-min Rain = 0
KMD1 032323Z 18004KT 37/09 A2995 RMK A01 T03730088  RH  018%=      5-min Rain = 0
KMD1 032324Z 16007KT 37/09 A2994 RMK A01 T03740093  RH  018%=      5-min Rain = 0
KMD1 032325Z 16005KT 38/09 A2995 RMK A01 T03750087  RH  017%=      5-min Rain = 0
KMD1 032326Z 17002KT 38/08 A2994 RMK A01 T03750084  RH  017%=      5-min Rain = 0
KMD1 032327Z 17005KT 37/08 A2994 RMK A01 T03740084  RH  017%=      5-min Rain = 0
KMD1 032328Z 16005KT 37/09 A2994 RMK A01 T03730089  RH  018%=      5-min Rain = 0
KMD1 032329Z 15007KT 37/09 A2994 RMK A01 T03740091  RH  018%=      5-min Rain = 0
KMD1 032330Z 17010KT 38/09 A2994 RMK A01 T03760094  RH  018%=      5-min Rain = 0
KMD1 032331Z 19007KT 38/09 A2994 RMK A01 T03750089  RH  018%=      5-min Rain = 0
KMD1 032332Z 18006KT 37/09 A2994 RMK A01 T03730094  RH  018%=      5-min Rain = 0
KMD1 032333Z 16006KT 37/10 A2994 RMK A01 T03740096  RH  019%=      5-min Rain = 0
KMD1 032334Z 15006KT 38/10 A2994 RMK A01 T03750096  RH  019%=      5-min Rain = 0
KMD1 032335Z 13006KT 38/10 A2994 RMK A01 T03750095  RH  018%=      5-min Rain = 0
KMD1 032336Z 12007KT 37/09 A2994 RMK A01 T03730090  RH  018%=      5-min Rain = 0
KMD1 032337Z 15004KT 37/09 A2994 RMK A01 T03710090  RH  018%=      5-min Rain = 0
KMD1 032338Z 16005KT 37/09 A2994 RMK A01 T03700094  RH  019%=      5-min Rain = 0
KMD1 032339Z 16005KT 37/10 A2994 RMK A01 T03710096  RH  019%=      5-min Rain = 0
KMD1 032340Z 16005KT 37/09 A2994 RMK A01 T03730093  RH  018%=      5-min Rain = 0
KMD1 032341Z 19003KT 37/09 A2994 RMK A01 T03740090  RH  018%=      5-min Rain = 0
KMD1 032342Z 20005KT 37/09 A2994 RMK A01 T03730092  RH  018%=      5-min Rain = 0
KMD1 032343Z 20005KT 37/09 A2994 RMK A01 T03720094  RH  019%=      5-min Rain = 0
KMD1 032344Z 20005KT 37/10 A2994 RMK A01 T03720100  RH  019%=      5-min Rain = 0
KMD1 032345Z 19006KT 37/10 A2994 RMK A01 T03730096  RH  019%=      5-min Rain = 0
KMD1 032346Z 16005KT 37/10 A2994 RMK A01 T03720095  RH  019%=      5-min Rain = 0
KMD1 032347Z 16005KT 37/10 A2994 RMK A01 T03710096  RH  019%=      5-min Rain = 0
KMD1 032348Z 15009KT 37/10 A2994 RMK A01 T03730101  RH  019%=      5-min Rain = 0
KMD1 032349Z 16009KT 37/10 A2994 RMK A01 T03730099  RH  019%=      5-min Rain = 0
KMD1 032350Z 15007KT 37/10 A2994 RMK A01 T03730095  RH  019%=      5-min Rain = 0
KMD1 032351Z 14005KT 37/10 A2994 RMK A01 T03720098  RH  019%=      5-min Rain = 0
KMD1 032352Z 14007KT 37/10 A2994 RMK A01 T03730096  RH  019%=      5-min Rain = 0
KMD1 032353Z 16006KT 37/10 A2994 RMK A01 T03730099  RH  019%=      5-min Rain = 0
KMD1 032354Z 17006KT 37/10 A2994 RMK A01 T03730096  RH  019%=      5-min Rain = 0
KMD1 032355Z 16005KT 37/10 A2994 RMK A01 T03720096  RH  019%=      5-min Rain = 0
KMD1 032356Z 18004KT 37/09 A2994 RMK A01 T03700092  RH  019%=      5-min Rain = 0
KMD1 032357Z 17003KT 37/09 A2994 RMK A01 T03700094  RH  019%=      5-min Rain = 0
KMD1 032358Z 19004KT 37/09 A2994 RMK A01 T03690094  RH  019%=      5-min Rain = 0
KMD1 032359Z 20004KT 37/10 A2994 RMK A01 T03690097  RH  019%=      5-min Rain = 0
KMD1 040000Z 16005KT 37/10 A2994 RMK A01 T03700101  RH  020%=      5-min Rain = 0
KMD1 040001Z 17006KT 37/10 A2994 RMK A01 T03710096  RH  019%=      5-min Rain = 0
KMD1 040002Z 17009KT 37/10 A2994 RMK A01 T03710101  RH  020%=      5-min Rain = 0
KMD1 040003Z 17008KT 37/10 A2994 RMK A01 T03710101  RH  020%=      5-min Rain = 0
KMD1 040004Z 18008KT 37/10 A2994 RMK A01 T03710101  RH  020%=      5-min Rain = 0
KMD1 040005Z 19008KT 37/10 A2994 RMK A01 T03710098  RH  019%=      5-min Rain = 0
KMD1 040006Z 18009KT 37/10 A2994 RMK A01 T03690100  RH  020%=      5-min Rain = 0
KMD1 040007Z 16007KT 37/10 A2994 RMK A01 T03690102  RH  020%=      5-min Rain = 0
KMD1 040008Z 17008KT 37/10 A2994 RMK A01 T03690102  RH  020%=      5-min Rain = 0
KMD1 040009Z 17007KT 37/10 A2994 RMK A01 T03690100  RH  020%=      5-min Rain = 0
KMD1 040010Z 17006KT 37/10 A2994 RMK A01 T03690097  RH  019%=      5-min Rain = 0
KMD1 040011Z 20005KT 37/10 A2994 RMK A01 T03680101  RH  020%=      5-min Rain = 0
KMD1 040012Z 18006KT 37/10 A2994 RMK A01 T03680098  RH  019%=      5-min Rain = 0
KMD1 040013Z 17005KT 37/10 A2994 RMK A01 T03670098  RH  020%=      5-min Rain = 0
KMD1 040014Z 16005KT 37/10 A2994 RMK A01 T03660097  RH  020%=      5-min Rain = 0
KMD1 040015Z 16005KT 37/10 A2994 RMK A01 T03660095  RH  019%=      5-min Rain = 0
KMD1 040016Z 17004KT 37/10 A2994 RMK A01 T03670100  RH  020%=      5-min Rain = 0
KMD1 040017Z 14003KT 37/10 A2994 RMK A01 T03670102  RH  020%=      5-min Rain = 0
KMD1 040018Z 13006KT 37/10 A2994 RMK A01 T03680103  RH  020%=      5-min Rain = 0
KMD1 040019Z 14006KT 37/10 A2994 RMK A01 T03680098  RH  019%=      5-min Rain = 0
KMD1 040020Z 14004KT 37/10 A2994 RMK A01 T03680096  RH  019%=      5-min Rain = 0
KMD1 040021Z 14007KT 37/10 A2994 RMK A01 T03680099  RH  020%=      5-min Rain = 0
KMD1 040022Z 15008KT 37/10 A2995 RMK A01 T03670103  RH  020%=      5-min Rain = 0
KMD1 040023Z 18007KT 37/10 A2995 RMK A01 T03670104  RH  020%=      5-min Rain = 0
KMD1 040024Z 17008KT 37/10 A2995 RMK A01 T03660099  RH  020%=      5-min Rain = 0
KMD1 040025Z 16009KT 37/10 A2995 RMK A01 T03660097  RH  020%=      5-min Rain = 0
KMD1 040026Z 17008KT 37/10 A2995 RMK A01 T03650102  RH  020%=      5-min Rain = 0
KMD1 040027Z 16006KT 37/10 A2995 RMK A01 T03650099  RH  020%=      5-min Rain = 0
KMD1 040028Z 15006KT 36/10 A2995 RMK A01 T03640100  RH  020%=      5-min Rain = 0
KMD1 040029Z 15005KT 36/10 A2995 RMK A01 T03640101  RH  020%=      5-min Rain = 0
KMD1 040030Z 14005KT 36/10 A2995 RMK A01 T03640099  RH  020%=      5-min Rain = 0
KMD1 040031Z 13005KT 36/10 A2995 RMK A01 T03640101  RH  020%=      5-min Rain = 0
KMD1 040032Z 14005KT 36/11 A2995 RMK A01 T03640106  RH  021%=      5-min Rain = 0
KMD1 040033Z 15007KT 37/10 A2995 RMK A01 T03650103  RH  021%=      5-min Rain = 0
KMD1 040034Z 15006KT 36/11 A2995 RMK A01 T03640105  RH  021%=      5-min Rain = 0
KMD1 040035Z 16005KT 36/10 A2995 RMK A01 T03640100  RH  020%=      5-min Rain = 0
KMD1 040036Z 15005KT 36/10 A2995 RMK A01 T03630100  RH  020%=      5-min Rain = 0
KMD1 040037Z 14005KT 36/11 A2995 RMK A01 T03630105  RH  021%=      5-min Rain = 0
KMD1 040038Z 14006KT 36/10 A2995 RMK A01 T03630104  RH  021%=      5-min Rain = 0
KMD1 040039Z 14006KT 36/10 A2995 RMK A01 T03630104  RH  021%=      5-min Rain = 0
KMD1 040040Z 13009KT 36/10 A2995 RMK A01 T03620101  RH  020%=      5-min Rain = 0
KMD1 040041Z 12007KT 36/10 A2995 RMK A01 T03610098  RH  020%=      5-min Rain = 0
KMD1 040042Z 13007KT 36/10 A2995 RMK A01 T03610100  RH  021%=      5-min Rain = 0
KMD1 040043Z 13008KT 36/11 A2995 RMK A01 T03610106  RH  021%=      5-min Rain = 0
KMD1 040044Z 15007KT 36/10 A2995 RMK A01 T03600104  RH  021%=      5-min Rain = 0
KMD1 040045Z 16007KT 36/11 A2995 RMK A01 T03600105  RH  021%=      5-min Rain = 0
KMD1 040046Z 17006KT 36/11 A2995 RMK A01 T03590105  RH  021%=      5-min Rain = 0
KMD1 040047Z 17007KT 36/10 A2995 RMK A01 T03590104  RH  021%=      5-min Rain = 0
KMD1 040048Z 16006KT 36/11 A2995 RMK A01 T03580106  RH  022%=      5-min Rain = 0
KMD1 040049Z 16009KT 36/10 A2995 RMK A01 T03580104  RH  021%=      5-min Rain = 0
KMD1 040050Z 17008KT 36/10 A2995 RMK A01 T03570103  RH  021%=      5-min Rain = 0
KMD1 040051Z 16007KT 36/11 A2995 RMK A01 T03570106  RH  022%=      5-min Rain = 0
KMD1 040052Z 16008KT 36/10 A2995 RMK A01 T03560104  RH  022%=      5-min Rain = 0
KMD1 040053Z 15008KT 36/10 A2995 RMK A01 T03560102  RH  021%=      5-min Rain = 0
KMD1 040054Z 16008KT 36/10 A2995 RMK A01 T03560103  RH  022%=      5-min Rain = 0
KMD1 040055Z 16007KT 36/11 A2995 RMK A01 T03560105  RH  022%=      5-min Rain = 0
KMD1 040056Z 16005KT 36/11 A2995 RMK A01 T03550106  RH  022%=      5-min Rain = 0
KMD1 040057Z 16005KT 36/11 A2995 RMK A01 T03550109  RH  023%=      5-min Rain = 0
KMD1 040058Z 17006KT 35/11 A2995 RMK A01 T03540108  RH  023%=      5-min Rain = 0
KMD1 040059Z 17007KT 35/11 A2995 RMK A01 T03540105  RH  022%=      5-min Rain = 0
KMD1 040100Z 17007KT 35/11 A2995 RMK A01 T03530106  RH  022%=      5-min Rain = 0
KMD1 040101Z 17006KT 35/11 A2995 RMK A01 T03530107  RH  022%=      5-min Rain = 0
KMD1 040102Z 17006KT 35/11 A2995 RMK A01 T03520109  RH  023%=      5-min Rain = 0
KMD1 040103Z 17006KT 35/11 A2995 RMK A01 T03510106  RH  023%=      5-min Rain = 0
KMD1 040104Z 17005KT 35/11 A2995 RMK A01 T03510107  RH  023%=      5-min Rain = 0
KMD1 040105Z 18005KT 35/11 A2995 RMK A01 T03500109  RH  023%=      5-min Rain = 0
KMD1 040106Z 17004KT 35/11 A2995 RMK A01 T03500108  RH  023%=      5-min Rain = 0
KMD1 040107Z 16005KT 35/11 A2995 RMK A01 T03490110  RH  023%=      5-min Rain = 0
KMD1 040108Z 16005KT 35/11 A2995 RMK A01 T03490111  RH  024%=      5-min Rain = 0
KMD1 040109Z 16005KT 35/11 A2995 RMK A01 T03470111  RH  024%=      5-min Rain = 0
KMD1 040110Z 16004KT 35/11 A2996 RMK A01 T03470112  RH  024%=      5-min Rain = 0
KMD1 040111Z 15005KT 35/11 A2996 RMK A01 T03460113  RH  024%=      5-min Rain = 0
KMD1 040112Z 15005KT 35/11 A2996 RMK A01 T03450113  RH  024%=      5-min Rain = 0
KMD1 040113Z 15005KT 35/11 A2996 RMK A01 T03450111  RH  024%=      5-min Rain = 0
KMD1 040114Z 15005KT 35/11 A2996 RMK A01 T03450111  RH  024%=      5-min Rain = 0
KMD1 040115Z 15005KT 34/11 A2996 RMK A01 T03440113  RH  024%=      5-min Rain = 0
KMD1 040116Z 15006KT 34/11 A2996 RMK A01 T03430111  RH  024%=      5-min Rain = 0
KMD1 040117Z 15005KT 34/11 A2996 RMK A01 T03430112  RH  024%=      5-min Rain = 0
KMD1 040118Z 15005KT 34/11 A2996 RMK A01 T03430111  RH  025%=      5-min Rain = 0
KMD1 040119Z 15006KT 34/11 A2996 RMK A01 T03420111  RH  025%=      5-min Rain = 0
KMD1 040120Z 15006KT 34/11 A2996 RMK A01 T03420108  RH  024%=      5-min Rain = 0
KMD1 040121Z 15005KT 34/11 A2996 RMK A01 T03420112  RH  025%=      5-min Rain = 0
KMD1 040122Z 15005KT 34/11 A2996 RMK A01 T03400112  RH  025%=      5-min Rain = 0
KMD1 040123Z 15005KT 34/11 A2996 RMK A01 T03400112  RH  025%=      5-min Rain = 0
KMD1 040124Z 15005KT 34/11 A2996 RMK A01 T03390113  RH  025%=      5-min Rain = 0
KMD1 040125Z 15005KT 34/11 A2996 RMK A01 T03380114  RH  026%=      5-min Rain = 0
KMD1 040126Z 15005KT 34/11 A2996 RMK A01 T03370114  RH  026%=      5-min Rain = 0
KMD1 040127Z 15005KT 34/11 A2996 RMK A01 T03360112  RH  026%=      5-min Rain = 0
KMD1 040128Z 15004KT 34/11 A2996 RMK A01 T03350113  RH  026%=      5-min Rain = 0
KMD1 040129Z 15004KT 34/11 A2996 RMK A01 T03350114  RH  026%=      5-min Rain = 0
KMD1 040130Z 15004KT 33/12 A2996 RMK A01 T03330115  RH  026%=      5-min Rain = 0
KMD1 040131Z 15004KT 33/12 A2996 RMK A01 T03320115  RH  027%=      5-min Rain = 0
KMD1 040132Z 15004KT 33/12 A2996 RMK A01 T03310115  RH  027%=      5-min Rain = 0
KMD1 040133Z 14004KT 33/11 A2996 RMK A01 T03300114  RH  027%=      5-min Rain = 0
KMD1 040134Z 14004KT 33/11 A2996 RMK A01 T03300114  RH  027%=      5-min Rain = 0
KMD1 040135Z 14004KT 33/12 A2996 RMK A01 T03290115  RH  027%=      5-min Rain = 0
KMD1 040136Z 13004KT 33/12 A2996 RMK A01 T03280115  RH  027%=      5-min Rain = 0
KMD1 040137Z 12004KT 33/12 A2996 RMK A01 T03270117  RH  028%=      5-min Rain = 0
KMD1 040138Z 11005KT 32/12 A2996 RMK A01 T03240117  RH  028%=      5-min Rain = 0
KMD1 040139Z 10004KT 32/12 A2996 RMK A01 T03230119  RH  029%=      5-min Rain = 0
KMD1 040140Z 10004KT 32/12 A2996 RMK A01 T03220118  RH  029%=      5-min Rain = 0
KMD1 040141Z 10004KT 32/12 A2996 RMK A01 T03220119  RH  029%=      5-min Rain = 0
KMD1 040142Z 10005KT 32/12 A2996 RMK A01 T03210123  RH  030%=      5-min Rain = 0
KMD1 040143Z 10005KT 32/12 A2996 RMK A01 T03180120  RH  030%=      5-min Rain = 0
KMD1 040144Z 11006KT 32/12 A2996 RMK A01 T03170118  RH  029%=      5-min Rain = 0
KMD1 040145Z 11006KT 32/12 A2996 RMK A01 T03180117  RH  029%=      5-min Rain = 0
KMD1 040146Z 11006KT 32/12 A2996 RMK A01 T03180118  RH  029%=      5-min Rain = 0
KMD1 040147Z 12007KT 32/12 A2996 RMK A01 T03180119  RH  030%=      5-min Rain = 0
KMD1 040148Z 12007KT 32/12 A2996 RMK A01 T03170120  RH  030%=      5-min Rain = 0
KMD1 040149Z 12007KT 32/12 A2996 RMK A01 T03160123  RH  031%=      5-min Rain = 0
KMD1 040150Z 13006KT 32/12 A2996 RMK A01 T03150124  RH  031%=      5-min Rain = 0
KMD1 040151Z 12007KT 32/13 A2996 RMK A01 T03160126  RH  031%=      5-min Rain = 0
KMD1 040152Z 12007KT 32/13 A2996 RMK A01 T03160126  RH  031%=      5-min Rain = 0
KMD1 040153Z 12008KT 32/13 A2996 RMK A01 T03160126  RH  031%=      5-min Rain = 0
KMD1 040154Z 12008KT 32/13 A2996 RMK A01 T03160128  RH  032%=      5-min Rain = 0
KMD1 040155Z 12007KT 32/13 A2996 RMK A01 T03170129  RH  032%=      5-min Rain = 0
KMD1 040156Z 13008KT 32/13 A2996 RMK A01 T03180130  RH  032%=      5-min Rain = 0
KMD1 040157Z 13007KT 32/13 A2996 RMK A01 T03180132  RH  032%=      5-min Rain = 0
KMD1 040158Z 13008KT 32/13 A2996 RMK A01 T03190133  RH  032%=      5-min Rain = 0
KMD1 040159Z 12007KT 32/13 A2996 RMK A01 T03190134  RH  033%=      5-min Rain = 0
KMD1 040200Z 13007KT 32/14 A2996 RMK A01 T03180135  RH  033%=      5-min Rain = 0
KMD1 040201Z 13009KT 32/14 A2996 RMK A01 T03170136  RH  033%=      5-min Rain = 0
KMD1 040202Z 13008KT 32/14 A2996 RMK A01 T03170136  RH  033%=      5-min Rain = 0
KMD1 040203Z 13009KT 32/14 A2996 RMK A01 T03170137  RH  033%=      5-min Rain = 0
KMD1 040204Z 13008KT 32/14 A2996 RMK A01 T03180138  RH  034%=      5-min Rain = 0
KMD1 040205Z 13008KT 32/14 A2997 RMK A01 T03170139  RH  034%=      5-min Rain = 0
KMD1 040206Z 14007KT 32/14 A2997 RMK A01 T03170139  RH  034%=      5-min Rain = 0
KMD1 040207Z 13007KT 32/14 A2997 RMK A01 T03170139  RH  034%=      5-min Rain = 0
KMD1 040208Z 13008KT 32/14 A2997 RMK A01 T03160139  RH  034%=      5-min Rain = 0
KMD1 040209Z 14007KT 32/14 A2997 RMK A01 T03160139  RH  034%=      5-min Rain = 0
KMD1 040210Z 13007KT 32/14 A2997 RMK A01 T03160139  RH  034%=      5-min Rain = 0
KMD1 040211Z 14007KT 32/14 A2997 RMK A01 T03160140  RH  034%=      5-min Rain = 0
KMD1 040212Z 13008KT 32/14 A2997 RMK A01 T03160140  RH  034%=      5-min Rain = 0
KMD1 040213Z 13008KT 32/14 A2997 RMK A01 T03150140  RH  034%=      5-min Rain = 0
KMD1 040214Z 13008KT 32/14 A2997 RMK A01 T03160140  RH  034%=      5-min Rain = 0
KMD1 040215Z 13008KT 32/14 A2997 RMK A01 T03150141  RH  035%=      5-min Rain = 0
KMD1 040216Z 14009KT 32/14 A2997 RMK A01 T03150141  RH  035%=      5-min Rain = 0
KMD1 040217Z 13008KT 31/14 A2997 RMK A01 T03140140  RH  035%=      5-min Rain = 0
KMD1 040218Z 14007KT 32/14 A2997 RMK A01 T03150140  RH  035%=      5-min Rain = 0
KMD1 040219Z 13007KT 32/14 A2997 RMK A01 T03150140  RH  035%=      5-min Rain = 0
KMD1 040220Z 14007KT 32/14 A2997 RMK A01 T03150140  RH  035%=      5-min Rain = 0
KMD1 040221Z 14007KT 32/14 A2997 RMK A01 T03150141  RH  035%=      5-min Rain = 0
KMD1 040222Z 14008KT 31/14 A2997 RMK A01 T03130140  RH  035%=      5-min Rain = 0
KMD1 040223Z 14007KT 31/14 A2997 RMK A01 T03130140  RH  035%=      5-min Rain = 0
KMD1 040224Z 14007KT 31/14 A2998 RMK A01 T03130140  RH  035%=      5-min Rain = 0
KMD1 040225Z 14008KT 31/14 A2998 RMK A01 T03130140  RH  035%=      5-min Rain = 0
KMD1 040226Z 14007KT 31/14 A2997 RMK A01 T03130139  RH  035%=      5-min Rain = 0
KMD1 040227Z 14007KT 31/14 A2998 RMK A01 T03120139  RH  035%=      5-min Rain = 0
KMD1 040228Z 14008KT 31/14 A2998 RMK A01 T03130140  RH  035%=      5-min Rain = 0
KMD1 040229Z 14007KT 31/14 A2998 RMK A01 T03120140  RH  035%=      5-min Rain = 0
KMD1 040230Z 14007KT 31/14 A2998 RMK A01 T03120140  RH  035%=      5-min Rain = 0
KMD1 040231Z 14007KT 31/14 A2998 RMK A01 T03110140  RH  035%=      5-min Rain = 0
KMD1 040232Z 14007KT 31/14 A2998 RMK A01 T03110140  RH  035%=      5-min Rain = 0
KMD1 040233Z 14007KT 31/14 A2998 RMK A01 T03100139  RH  035%=      5-min Rain = 0
KMD1 040234Z 14007KT 31/14 A2998 RMK A01 T03100139  RH  035%=      5-min Rain = 0
KMD1 040235Z 14008KT 31/14 A2998 RMK A01 T03100139  RH  035%=      5-min Rain = 0
KMD1 040236Z 13008KT 31/14 A2998 RMK A01 T03090139  RH  035%=      5-min Rain = 0
KMD1 040237Z 14008KT 31/14 A2998 RMK A01 T03090140  RH  036%=      5-min Rain = 0
KMD1 040238Z 13008KT 31/14 A2998 RMK A01 T03080139  RH  036%=      5-min Rain = 0
KMD1 040239Z 13007KT 31/14 A2998 RMK A01 T03080139  RH  036%=      5-min Rain = 0
KMD1 040240Z 14006KT 31/14 A2998 RMK A01 T03070140  RH  036%=      5-min Rain = 0
KMD1 040241Z 13007KT 31/14 A2998 RMK A01 T03060140  RH  036%=      5-min Rain = 0
KMD1 040242Z 13009KT 31/14 A2998 RMK A01 T03050140  RH  037%=      5-min Rain = 0
KMD1 040243Z 14008KT 31/14 A2998 RMK A01 T03050139  RH  036%=      5-min Rain = 0
KMD1 040244Z 14008KT 31/14 A2998 RMK A01 T03050139  RH  036%=      5-min Rain = 0
KMD1 040245Z 13008KT 31/14 A2998 RMK A01 T03060139  RH  036%=      5-min Rain = 0
KMD1 040246Z 14008KT 31/14 A2998 RMK A01 T03060139  RH  036%=      5-min Rain = 0
KMD1 040247Z 14007KT 31/14 A2998 RMK A01 T03060139  RH  036%=      5-min Rain = 0
KMD1 040248Z 14008KT 31/14 A2998 RMK A01 T03060139  RH  036%=      5-min Rain = 0
KMD1 040249Z 14008KT 31/14 A2999 RMK A01 T03060139  RH  036%=      5-min Rain = 0
KMD1 040250Z 14007KT 31/14 A2999 RMK A01 T03050139  RH  036%=      5-min Rain = 0
KMD1 040251Z 14007KT 31/14 A2999 RMK A01 T03050139  RH  036%=      5-min Rain = 0
KMD1 040252Z 13007KT 31/14 A2999 RMK A01 T03050139  RH  036%=      5-min Rain = 0
KMD1 040253Z 14008KT 31/14 A2999 RMK A01 T03050139  RH  036%=      5-min Rain = 0
KMD1 040254Z 13007KT 31/14 A2999 RMK A01 T03050139  RH  036%=      5-min Rain = 0
KMD1 040255Z 15008KT 30/14 A2999 RMK A01 T03040139  RH  036%=      5-min Rain = 0
KMD1 040256Z 14007KT 30/14 A2999 RMK A01 T03040138  RH  036%=      5-min Rain = 0
KMD1 040257Z 14008KT 30/14 A2999 RMK A01 T03040138  RH  036%=      5-min Rain = 0
KMD1 040258Z 14007KT 30/14 A2999 RMK A01 T03040138  RH  036%=      5-min Rain = 0
KMD1 040259Z 14007KT 30/14 A2999 RMK A01 T03040139  RH  036%=      5-min Rain = 0
KMD1 040300Z 14007KT 30/14 A2999 RMK A01 T03030138  RH  037%=      5-min Rain = 0
KMD1 040301Z 14007KT 30/14 A2999 RMK A01 T03030138  RH  037%=      5-min Rain = 0
KMD1 040302Z 14007KT 30/14 A2999 RMK A01 T03020138  RH  037%=      5-min Rain = 0
KMD1 040303Z 14007KT 30/14 A2999 RMK A01 T03020139  RH  037%=      5-min Rain = 0
KMD1 040304Z 13006KT 30/14 A2999 RMK A01 T03010139  RH  037%=      5-min Rain = 0
KMD1 040305Z 13007KT 30/14 A2999 RMK A01 T03000139  RH  037%=      5-min Rain = 0
KMD1 040306Z 13007KT 30/14 A2999 RMK A01 T03000139  RH  038%=      5-min Rain = 0
KMD1 040307Z 13007KT 30/14 A2999 RMK A01 T02990139  RH  038%=      5-min Rain = 0
KMD1 040308Z 13006KT 30/14 A2999 RMK A01 T02980140  RH  038%=      5-min Rain = 0
KMD1 040309Z 13006KT 30/14 A2999 RMK A01 T02970140  RH  038%=      5-min Rain = 0
KMD1 040310Z 14006KT 30/14 A2999 RMK A01 T02960140  RH  039%=      5-min Rain = 0
KMD1 040311Z 14006KT 30/14 A2999 RMK A01 T02950140  RH  039%=      5-min Rain = 0
KMD1 040312Z 14005KT 30/14 A2999 RMK A01 T02950140  RH  039%=      5-min Rain = 0
KMD1 040313Z 14006KT 30/14 A2999 RMK A01 T02950139  RH  039%=      5-min Rain = 0
KMD1 040314Z 14007KT 30/14 A30 RMK A01 T02950139  RH  039%=      5-min Rain = 0
KMD1 040315Z 14007KT 30/14 A30 RMK A01 T02950139  RH  039%=      5-min Rain = 0
KMD1 040316Z 13007KT 30/14 A30 RMK A01 T02950139  RH  039%=      5-min Rain = 0
KMD1 040317Z 13007KT 30/14 A30 RMK A01 T02950139  RH  039%=      5-min Rain = 0
KMD1 040318Z 13006KT 30/14 A30 RMK A01 T02950140  RH  039%=      5-min Rain = 0
KMD1 040319Z 13007KT 29/14 A30 RMK A01 T02940140  RH  039%=      5-min Rain = 0
KMD1 040320Z 13007KT 29/14 A30 RMK A01 T02930140  RH  039%=      5-min Rain = 0
KMD1 040321Z 13006KT 29/14 A30 RMK A01 T02930141  RH  039%=      5-min Rain = 0
KMD1 040322Z 13005KT 29/14 A30 RMK A01 T02920140  RH  039%=      5-min Rain = 0
KMD1 040323Z 12007KT 29/14 A30 RMK A01 T02910141  RH  040%=      5-min Rain = 0
KMD1 040324Z 12005KT 29/14 A30 RMK A01 T02910141  RH  040%=      5-min Rain = 0
KMD1 040325Z 12005KT 29/14 A30 RMK A01 T02910141  RH  040%=      5-min Rain = 0
KMD1 040326Z 12005KT 29/14 A30 RMK A01 T02900141  RH  040%=      5-min Rain = 0
KMD1 040327Z 12004KT 29/14 A30 RMK A01 T02890142  RH  041%=      5-min Rain = 0
KMD1 040328Z 12005KT 29/14 A30 RMK A01 T02880142  RH  041%=      5-min Rain = 0
KMD1 040329Z 11005KT 29/14 A30 RMK A01 T02880142  RH  041%=      5-min Rain = 0
KMD1 040330Z 11004KT 29/14 A30 RMK A01 T02880142  RH  041%=      5-min Rain = 0
KMD1 040331Z 12004KT 29/14 A30 RMK A01 T02870142  RH  041%=      5-min Rain = 0
KMD1 040332Z 11004KT 29/14 A30 RMK A01 T02860142  RH  041%=      5-min Rain = 0
KMD1 040333Z 11003KT 29/14 A30 RMK A01 T02850142  RH  041%=      5-min Rain = 0
KMD1 040334Z 11003KT 29/14 A30 RMK A01 T02850142  RH  042%=      5-min Rain = 0
KMD1 040335Z 11003KT 29/14 A30 RMK A01 T02850142  RH  042%=      5-min Rain = 0
KMD1 040336Z 12004KT 29/14 A30 RMK A01 T02850141  RH  041%=      5-min Rain = 0
KMD1 040337Z 11003KT 29/14 A30 RMK A01 T02860142  RH  041%=      5-min Rain = 0
KMD1 040338Z 11003KT 29/14 A30 RMK A01 T02860143  RH  042%=      5-min Rain = 0
KMD1 040339Z 10002KT 29/14 A30 RMK A01 T02850144  RH  042%=      5-min Rain = 0
KMD1 040340Z 10003KT 28/14 A30 RMK A01 T02830143  RH  042%=      5-min Rain = 0
KMD1 040341Z 08003KT 28/14 A30 RMK A01 T02840143  RH  042%=      5-min Rain = 0
KMD1 040342Z 08002KT 28/15 A30 RMK A01 T02830146  RH  043%=      5-min Rain = 0
KMD1 040343Z 07002KT 28/14 A30 RMK A01 T02800144  RH  043%=      5-min Rain = 0
KMD1 040344Z 08002KT 28/14 A3001 RMK A01 T02800143  RH  043%=      5-min Rain = 0
KMD1 040345Z 08002KT 28/14 A3001 RMK A01 T02800143  RH  043%=      5-min Rain = 0
KMD1 040346Z 08003KT 28/14 A3001 RMK A01 T02800144  RH  043%=      5-min Rain = 0
KMD1 040347Z 09002KT 28/14 A3001 RMK A01 T02800144  RH  043%=      5-min Rain = 0
KMD1 040348Z 08003KT 28/15 A3001 RMK A01 T02790145  RH  044%=      5-min Rain = 0
KMD1 040349Z 07004KT 28/14 A3001 RMK A01 T02780144  RH  044%=      5-min Rain = 0
KMD1 040350Z 08004KT 28/14 A3001 RMK A01 T02770143  RH  044%=      5-min Rain = 0
KMD1 040351Z 08003KT 28/14 A3001 RMK A01 T02770143  RH  044%=      5-min Rain = 0
KMD1 040352Z 08003KT 28/14 A3001 RMK A01 T02770144  RH  044%=      5-min Rain = 0
KMD1 040353Z 08004KT 28/15 A3001 RMK A01 T02760146  RH  045%=      5-min Rain = 0
KMD1 040354Z 08004KT 27/15 A3001 RMK A01 T02740146  RH  045%=      5-min Rain = 0
KMD1 040355Z 08004KT 27/15 A3001 RMK A01 T02730145  RH  045%=      5-min Rain = 0
KMD1 040356Z 08005KT 27/15 A3001 RMK A01 T02730145  RH  046%=      5-min Rain = 0
KMD1 040357Z 08004KT 27/15 A3001 RMK A01 T02720145  RH  046%=      5-min Rain = 0
KMD1 040358Z 09004KT 27/15 A3001 RMK A01 T02720145  RH  046%=      5-min Rain = 0
KMD1 040359Z 08005KT 27/15 A3001 RMK A01 T02720146  RH  046%=      5-min Rain = 0
KMD1 040400Z 09005KT 27/15 A3001 RMK A01 T02710146  RH  046%=      5-min Rain = 0
KMD1 040401Z 09005KT 27/15 A3001 RMK A01 T02710146  RH  046%=      5-min Rain = 0
KMD1 040402Z 09004KT 27/15 A3001 RMK A01 T02700146  RH  047%=      5-min Rain = 0
KMD1 040403Z 09004KT 27/15 A3001 RMK A01 T02700146  RH  047%=      5-min Rain = 0
KMD1 040404Z 09005KT 27/15 A3001 RMK A01 T02700146  RH  047%=      5-min Rain = 0
KMD1 040405Z 09005KT 27/15 A3001 RMK A01 T02700145  RH  046%=      5-min Rain = 0
KMD1 040406Z 09004KT 27/15 A3001 RMK A01 T02700145  RH  046%=      5-min Rain = 0
KMD1 040407Z 10005KT 27/15 A3001 RMK A01 T02700146  RH  046%=      5-min Rain = 0
KMD1 040408Z 09005KT 27/15 A3002 RMK A01 T02700145  RH  046%=      5-min Rain = 0
KMD1 040409Z 09004KT 27/15 A3002 RMK A01 T02700145  RH  046%=      5-min Rain = 0
KMD1 040410Z 10004KT 27/15 A3002 RMK A01 T02700145  RH  046%=      5-min Rain = 0
KMD1 040411Z 10005KT 27/15 A3002 RMK A01 T02710146  RH  046%=      5-min Rain = 0
KMD1 040412Z 10004KT 27/15 A3002 RMK A01 T02700146  RH  046%=      5-min Rain = 0
KMD1 040413Z 10004KT 27/15 A3002 RMK A01 T02700146  RH  046%=      5-min Rain = 0
KMD1 040414Z 11004KT 27/15 A3002 RMK A01 T02700146  RH  047%=      5-min Rain = 0
KMD1 040415Z 10003KT 27/15 A3002 RMK A01 T02690146  RH  047%=      5-min Rain = 0
KMD1 040416Z 11003KT 27/15 A3002 RMK A01 T02690147  RH  047%=      5-min Rain = 0
KMD1 040417Z 10003KT 27/15 A3002 RMK A01 T02680146  RH  047%=      5-min Rain = 0
KMD1 040418Z 11003KT 27/15 A3002 RMK A01 T02690145  RH  047%=      5-min Rain = 0
KMD1 040419Z 10002KT 27/15 A3002 RMK A01 T02690146  RH  047%=      5-min Rain = 0
KMD1 040420Z 11002KT 27/15 A3002 RMK A01 T02690146  RH  047%=      5-min Rain = 0
KMD1 040421Z 11002KT 27/15 A3002 RMK A01 T02690146  RH  047%=      5-min Rain = 0
KMD1 040422Z 11002KT 27/15 A3002 RMK A01 T02680146  RH  047%=      5-min Rain = 0
KMD1 040423Z 11002KT 27/15 A3002 RMK A01 T02680146  RH  047%=      5-min Rain = 0
KMD1 040424Z 11001KT 27/15 A3002 RMK A01 T02670146  RH  047%=      5-min Rain = 0
KMD1 040425Z 11000KT 27/15 A3002 RMK A01 T02670146  RH  048%=      5-min Rain = 0
KMD1 040426Z 10000KT 27/15 A3002 RMK A01 T02660147  RH  048%=      5-min Rain = 0
KMD1 040427Z 00000KT 27/15 A3002 RMK A01 T02650148  RH  048%=      5-min Rain = 0
KMD1 040428Z 36000KT 27/15 A3002 RMK A01 T02650147  RH  048%=      5-min Rain = 0
KMD1 040429Z 02000KT 26/15 A3002 RMK A01 T02640147  RH  048%=      5-min Rain = 0
KMD1 040430Z 04000KT 26/15 A3002 RMK A01 T02640147  RH  048%=      5-min Rain = 0
KMD1 040431Z 34000KT 26/15 A3002 RMK A01 T02640146  RH  048%=      5-min Rain = 0
KMD1 040432Z 36000KT 27/15 A3002 RMK A01 T02650148  RH  049%=      5-min Rain = 0
KMD1 040433Z 35000KT 27/15 A3002 RMK A01 T02650149  RH  049%=      5-min Rain = 0
KMD1 040434Z 34000KT 27/15 A3002 RMK A01 T02650148  RH  049%=      5-min Rain = 0
KMD1 040435Z 34000KT 27/15 A3002 RMK A01 T02650148  RH  049%=      5-min Rain = 0
KMD1 040436Z 35000KT 27/15 A3002 RMK A01 T02650149  RH  049%=      5-min Rain = 0
KMD1 040437Z 33001KT 27/15 A3002 RMK A01 T02650149  RH  049%=      5-min Rain = 0
KMD1 040438Z 33001KT 27/15 A3002 RMK A01 T02650149  RH  049%=      5-min Rain = 0
KMD1 040439Z 33001KT 27/15 A3002 RMK A01 T02650146  RH  048%=      5-min Rain = 0
KMD1 040440Z 34001KT 27/15 A3002 RMK A01 T02670146  RH  048%=      5-min Rain = 0
KMD1 040441Z 36001KT 27/15 A3002 RMK A01 T02680149  RH  048%=      5-min Rain = 0
KMD1 040442Z 01001KT 27/15 A3002 RMK A01 T02680146  RH  047%=      5-min Rain = 0
KMD1 040443Z 03000KT 27/15 A3002 RMK A01 T02690147  RH  047%=      5-min Rain = 0
KMD1 040444Z 01001KT 27/15 A3002 RMK A01 T02690151  RH  048%=      5-min Rain = 0
KMD1 040445Z 01001KT 27/15 A3002 RMK A01 T02670152  RH  049%=      5-min Rain = 0
KMD1 040446Z 04002KT 27/15 A3002 RMK A01 T02650152  RH  050%=      5-min Rain = 0
KMD1 040447Z 01002KT 26/15 A3002 RMK A01 T02620152  RH  051%=      5-min Rain = 0
KMD1 040448Z 01001KT 26/15 A3002 RMK A01 T02610151  RH  051%=      5-min Rain = 0
KMD1 040449Z 01002KT 26/15 A3002 RMK A01 T02600150  RH  051%=      5-min Rain = 0
KMD1 040450Z 02001KT 26/15 A3002 RMK A01 T02600152  RH  051%=      5-min Rain = 0
KMD1 040451Z 02001KT 26/15 A3002 RMK A01 T02590151  RH  051%=      5-min Rain = 0
KMD1 040452Z 01002KT 26/15 A3002 RMK A01 T02580149  RH  051%=      5-min Rain = 0
KMD1 040453Z 02002KT 26/15 A3002 RMK A01 T02590150  RH  051%=      5-min Rain = 0
KMD1 040454Z 02002KT 26/15 A3002 RMK A01 T02590151  RH  051%=      5-min Rain = 0
KMD1 040455Z 01002KT 26/15 A3002 RMK A01 T02570152  RH  052%=      5-min Rain = 0
KMD1 040456Z 01002KT 26/15 A3002 RMK A01 T02550151  RH  052%=      5-min Rain = 0
KMD1 040457Z 03001KT 26/15 A3002 RMK A01 T02550150  RH  052%=      5-min Rain = 0
KMD1 040458Z 03002KT 26/15 A3002 RMK A01 T02550149  RH  052%=      5-min Rain = 0
KMD1 040459Z 03002KT 26/15 A3002 RMK A01 T02560150  RH  052%=      5-min Rain = 0

Page generated in 0.1799 seconds.